<?xml version="1.0" encoding="UTF-8" standalone="no" ?>
<gpx xmlns="http://www.topografix.com/GPX/1/1" creator="www.cicloide.com" version="1.1" xmlns:xsi="http://www.w3.org/2001/XMLSchema-instance" xsi:schemaLocation="http://www.topografix.com/GPX/1/1 http://www.topografix.com/GPX/1/1/gpx.xsd">
  <trk>
    <name>www.cicloide.com 10581</name>
    <desc>www.cicloide.com 10581</desc>
    <trkseg>
      <trkpt lat="41.543880000" lon="1.886939000">
        <ele>101.20</ele>
        <time>2012-09-18T17:29:47Z</time>
      </trkpt>
      <trkpt lat="41.543718000" lon="1.886752000">
        <ele>101.50</ele>
        <time>2012-09-18T17:29:54Z</time>
      </trkpt>
      <trkpt lat="41.543508000" lon="1.886762000">
        <ele>100.40</ele>
        <time>2012-09-18T17:29:59Z</time>
      </trkpt>
      <trkpt lat="41.543331000" lon="1.886908000">
        <ele>99.00</ele>
        <time>2012-09-18T17:30:04Z</time>
      </trkpt>
      <trkpt lat="41.543126000" lon="1.886868000">
        <ele>98.50</ele>
        <time>2012-09-18T17:30:08Z</time>
      </trkpt>
      <trkpt lat="41.542921000" lon="1.886830000">
        <ele>97.00</ele>
        <time>2012-09-18T17:30:11Z</time>
      </trkpt>
      <trkpt lat="41.542711000" lon="1.886829000">
        <ele>96.30</ele>
        <time>2012-09-18T17:30:16Z</time>
      </trkpt>
      <trkpt lat="41.542538000" lon="1.886890000">
        <ele>95.50</ele>
        <time>2012-09-18T17:30:20Z</time>
      </trkpt>
      <trkpt lat="41.542368000" lon="1.887022000">
        <ele>95.30</ele>
        <time>2012-09-18T17:30:25Z</time>
      </trkpt>
      <trkpt lat="41.542210000" lon="1.887171000">
        <ele>96.10</ele>
        <time>2012-09-18T17:30:32Z</time>
      </trkpt>
      <trkpt lat="41.542067000" lon="1.887331000">
        <ele>96.90</ele>
        <time>2012-09-18T17:30:39Z</time>
      </trkpt>
      <trkpt lat="41.541940000" lon="1.887491000">
        <ele>97.10</ele>
        <time>2012-09-18T17:30:46Z</time>
      </trkpt>
      <trkpt lat="41.541805000" lon="1.887692000">
        <ele>96.30</ele>
        <time>2012-09-18T17:30:53Z</time>
      </trkpt>
      <trkpt lat="41.541695000" lon="1.887892000">
        <ele>96.10</ele>
        <time>2012-09-18T17:30:58Z</time>
      </trkpt>
      <trkpt lat="41.541583000" lon="1.888119000">
        <ele>95.60</ele>
        <time>2012-09-18T17:31:05Z</time>
      </trkpt>
      <trkpt lat="41.541477000" lon="1.888347000">
        <ele>96.20</ele>
        <time>2012-09-18T17:31:12Z</time>
      </trkpt>
      <trkpt lat="41.541348000" lon="1.888558000">
        <ele>95.30</ele>
        <time>2012-09-18T17:31:19Z</time>
      </trkpt>
      <trkpt lat="41.541214000" lon="1.888774000">
        <ele>95.40</ele>
        <time>2012-09-18T17:31:24Z</time>
      </trkpt>
      <trkpt lat="41.541083000" lon="1.889003000">
        <ele>95.00</ele>
        <time>2012-09-18T17:31:28Z</time>
      </trkpt>
      <trkpt lat="41.540958000" lon="1.889243000">
        <ele>94.70</ele>
        <time>2012-09-18T17:31:33Z</time>
      </trkpt>
      <trkpt lat="41.540869000" lon="1.889511000">
        <ele>95.00</ele>
        <time>2012-09-18T17:31:38Z</time>
      </trkpt>
      <trkpt lat="41.540813000" lon="1.889787000">
        <ele>95.20</ele>
        <time>2012-09-18T17:31:43Z</time>
      </trkpt>
      <trkpt lat="41.540766000" lon="1.890041000">
        <ele>96.30</ele>
        <time>2012-09-18T17:31:49Z</time>
      </trkpt>
      <trkpt lat="41.540708000" lon="1.890316000">
        <ele>96.80</ele>
        <time>2012-09-18T17:31:54Z</time>
      </trkpt>
      <trkpt lat="41.540663000" lon="1.890588000">
        <ele>96.30</ele>
        <time>2012-09-18T17:31:59Z</time>
      </trkpt>
      <trkpt lat="41.540607000" lon="1.890854000">
        <ele>96.40</ele>
        <time>2012-09-18T17:32:04Z</time>
      </trkpt>
      <trkpt lat="41.540552000" lon="1.891109000">
        <ele>97.10</ele>
        <time>2012-09-18T17:32:11Z</time>
      </trkpt>
      <trkpt lat="41.540510000" lon="1.891370000">
        <ele>96.80</ele>
        <time>2012-09-18T17:32:17Z</time>
      </trkpt>
      <trkpt lat="41.540443000" lon="1.891851000">
        <ele>97.00</ele>
        <time>2012-09-18T17:32:27Z</time>
      </trkpt>
      <trkpt lat="41.540387000" lon="1.892083000">
        <ele>96.70</ele>
        <time>2012-09-18T17:32:32Z</time>
      </trkpt>
      <trkpt lat="41.540346000" lon="1.892320000">
        <ele>96.80</ele>
        <time>2012-09-18T17:32:36Z</time>
      </trkpt>
      <trkpt lat="41.540302000" lon="1.892561000">
        <ele>97.00</ele>
        <time>2012-09-18T17:32:41Z</time>
      </trkpt>
      <trkpt lat="41.540269000" lon="1.892810000">
        <ele>96.60</ele>
        <time>2012-09-18T17:32:46Z</time>
      </trkpt>
      <trkpt lat="41.540223000" lon="1.893053000">
        <ele>96.20</ele>
        <time>2012-09-18T17:32:51Z</time>
      </trkpt>
      <trkpt lat="41.540048000" lon="1.893129000">
        <ele>96.40</ele>
        <time>2012-09-18T17:33:00Z</time>
      </trkpt>
      <trkpt lat="41.539849000" lon="1.893056000">
        <ele>95.90</ele>
        <time>2012-09-18T17:33:07Z</time>
      </trkpt>
      <trkpt lat="41.539664000" lon="1.892983000">
        <ele>95.10</ele>
        <time>2012-09-18T17:33:12Z</time>
      </trkpt>
      <trkpt lat="41.539456000" lon="1.892888000">
        <ele>93.70</ele>
        <time>2012-09-18T17:33:19Z</time>
      </trkpt>
      <trkpt lat="41.539269000" lon="1.892817000">
        <ele>92.00</ele>
        <time>2012-09-18T17:33:23Z</time>
      </trkpt>
      <trkpt lat="41.539055000" lon="1.892750000">
        <ele>91.20</ele>
        <time>2012-09-18T17:33:26Z</time>
      </trkpt>
      <trkpt lat="41.538891000" lon="1.892853000">
        <ele>90.40</ele>
        <time>2012-09-18T17:33:30Z</time>
      </trkpt>
      <trkpt lat="41.538793000" lon="1.893081000">
        <ele>87.50</ele>
        <time>2012-09-18T17:33:33Z</time>
      </trkpt>
      <trkpt lat="41.538713000" lon="1.893374000">
        <ele>85.50</ele>
        <time>2012-09-18T17:33:35Z</time>
      </trkpt>
      <trkpt lat="41.538633000" lon="1.893717000">
        <ele>83.00</ele>
        <time>2012-09-18T17:33:38Z</time>
      </trkpt>
      <trkpt lat="41.538462000" lon="1.893937000">
        <ele>81.40</ele>
        <time>2012-09-18T17:33:42Z</time>
      </trkpt>
      <trkpt lat="41.538254000" lon="1.893961000">
        <ele>81.70</ele>
        <time>2012-09-18T17:33:45Z</time>
      </trkpt>
      <trkpt lat="41.538058000" lon="1.893813000">
        <ele>81.70</ele>
        <time>2012-09-18T17:33:47Z</time>
      </trkpt>
      <trkpt lat="41.537861000" lon="1.893661000">
        <ele>81.20</ele>
        <time>2012-09-18T17:33:51Z</time>
      </trkpt>
      <trkpt lat="41.537659000" lon="1.893564000">
        <ele>82.20</ele>
        <time>2012-09-18T17:33:54Z</time>
      </trkpt>
      <trkpt lat="41.537440000" lon="1.893520000">
        <ele>81.60</ele>
        <time>2012-09-18T17:33:56Z</time>
      </trkpt>
      <trkpt lat="41.537231000" lon="1.893477000">
        <ele>80.90</ele>
        <time>2012-09-18T17:33:59Z</time>
      </trkpt>
      <trkpt lat="41.536994000" lon="1.893425000">
        <ele>79.00</ele>
        <time>2012-09-18T17:34:03Z</time>
      </trkpt>
      <trkpt lat="41.536759000" lon="1.893372000">
        <ele>78.20</ele>
        <time>2012-09-18T17:34:06Z</time>
      </trkpt>
      <trkpt lat="41.536520000" lon="1.893340000">
        <ele>77.60</ele>
        <time>2012-09-18T17:34:08Z</time>
      </trkpt>
      <trkpt lat="41.536320000" lon="1.893431000">
        <ele>79.40</ele>
        <time>2012-09-18T17:34:12Z</time>
      </trkpt>
      <trkpt lat="41.536232000" lon="1.893656000">
        <ele>80.40</ele>
        <time>2012-09-18T17:34:15Z</time>
      </trkpt>
      <trkpt lat="41.536291000" lon="1.893944000">
        <ele>81.60</ele>
        <time>2012-09-18T17:34:18Z</time>
      </trkpt>
      <trkpt lat="41.536453000" lon="1.894126000">
        <ele>83.50</ele>
        <time>2012-09-18T17:34:24Z</time>
      </trkpt>
      <trkpt lat="41.536624000" lon="1.894198000">
        <ele>84.50</ele>
        <time>2012-09-18T17:34:34Z</time>
      </trkpt>
      <trkpt lat="41.536775000" lon="1.894387000">
        <ele>84.40</ele>
        <time>2012-09-18T17:34:43Z</time>
      </trkpt>
      <trkpt lat="41.536840000" lon="1.894640000">
        <ele>84.00</ele>
        <time>2012-09-18T17:34:48Z</time>
      </trkpt>
      <trkpt lat="41.536851000" lon="1.894907000">
        <ele>83.70</ele>
        <time>2012-09-18T17:34:53Z</time>
      </trkpt>
      <trkpt lat="41.536860000" lon="1.895194000">
        <ele>83.80</ele>
        <time>2012-09-18T17:34:57Z</time>
      </trkpt>
      <trkpt lat="41.536880000" lon="1.895489000">
        <ele>82.90</ele>
        <time>2012-09-18T17:35:00Z</time>
      </trkpt>
      <trkpt lat="41.536866000" lon="1.895796000">
        <ele>82.90</ele>
        <time>2012-09-18T17:35:04Z</time>
      </trkpt>
      <trkpt lat="41.536837000" lon="1.896110000">
        <ele>81.70</ele>
        <time>2012-09-18T17:35:09Z</time>
      </trkpt>
      <trkpt lat="41.536789000" lon="1.896425000">
        <ele>81.80</ele>
        <time>2012-09-18T17:35:12Z</time>
      </trkpt>
      <trkpt lat="41.536740000" lon="1.896658000">
        <ele>81.80</ele>
        <time>2012-09-18T17:35:16Z</time>
      </trkpt>
      <trkpt lat="41.536679000" lon="1.896886000">
        <ele>81.80</ele>
        <time>2012-09-18T17:35:18Z</time>
      </trkpt>
      <trkpt lat="41.536606000" lon="1.897113000">
        <ele>81.50</ele>
        <time>2012-09-18T17:35:21Z</time>
      </trkpt>
      <trkpt lat="41.536519000" lon="1.897332000">
        <ele>81.70</ele>
        <time>2012-09-18T17:35:25Z</time>
      </trkpt>
      <trkpt lat="41.536421000" lon="1.897551000">
        <ele>81.40</ele>
        <time>2012-09-18T17:35:28Z</time>
      </trkpt>
      <trkpt lat="41.536316000" lon="1.897766000">
        <ele>81.20</ele>
        <time>2012-09-18T17:35:30Z</time>
      </trkpt>
      <trkpt lat="41.536202000" lon="1.897968000">
        <ele>81.00</ele>
        <time>2012-09-18T17:35:33Z</time>
      </trkpt>
      <trkpt lat="41.536077000" lon="1.898156000">
        <ele>80.90</ele>
        <time>2012-09-18T17:35:37Z</time>
      </trkpt>
      <trkpt lat="41.535945000" lon="1.898331000">
        <ele>81.00</ele>
        <time>2012-09-18T17:35:40Z</time>
      </trkpt>
      <trkpt lat="41.535803000" lon="1.898496000">
        <ele>81.10</ele>
        <time>2012-09-18T17:35:42Z</time>
      </trkpt>
      <trkpt lat="41.535647000" lon="1.898652000">
        <ele>80.90</ele>
        <time>2012-09-18T17:35:46Z</time>
      </trkpt>
      <trkpt lat="41.535487000" lon="1.898797000">
        <ele>79.80</ele>
        <time>2012-09-18T17:35:49Z</time>
      </trkpt>
      <trkpt lat="41.535323000" lon="1.898926000">
        <ele>80.70</ele>
        <time>2012-09-18T17:35:51Z</time>
      </trkpt>
      <trkpt lat="41.535159000" lon="1.899056000">
        <ele>81.10</ele>
        <time>2012-09-18T17:35:54Z</time>
      </trkpt>
      <trkpt lat="41.534988000" lon="1.899183000">
        <ele>82.60</ele>
        <time>2012-09-18T17:35:58Z</time>
      </trkpt>
      <trkpt lat="41.534821000" lon="1.899313000">
        <ele>81.20</ele>
        <time>2012-09-18T17:36:01Z</time>
      </trkpt>
      <trkpt lat="41.534649000" lon="1.899443000">
        <ele>81.90</ele>
        <time>2012-09-18T17:36:03Z</time>
      </trkpt>
      <trkpt lat="41.534481000" lon="1.899570000">
        <ele>81.40</ele>
        <time>2012-09-18T17:36:06Z</time>
      </trkpt>
      <trkpt lat="41.534312000" lon="1.899700000">
        <ele>81.60</ele>
        <time>2012-09-18T17:36:10Z</time>
      </trkpt>
      <trkpt lat="41.534143000" lon="1.899830000">
        <ele>82.00</ele>
        <time>2012-09-18T17:36:12Z</time>
      </trkpt>
      <trkpt lat="41.533968000" lon="1.899963000">
        <ele>83.20</ele>
        <time>2012-09-18T17:36:15Z</time>
      </trkpt>
      <trkpt lat="41.533792000" lon="1.900098000">
        <ele>82.10</ele>
        <time>2012-09-18T17:36:19Z</time>
      </trkpt>
      <trkpt lat="41.533620000" lon="1.900232000">
        <ele>81.70</ele>
        <time>2012-09-18T17:36:22Z</time>
      </trkpt>
      <trkpt lat="41.533449000" lon="1.900368000">
        <ele>82.20</ele>
        <time>2012-09-18T17:36:24Z</time>
      </trkpt>
      <trkpt lat="41.533279000" lon="1.900474000">
        <ele>82.20</ele>
        <time>2012-09-18T17:36:27Z</time>
      </trkpt>
      <trkpt lat="41.533102000" lon="1.900550000">
        <ele>81.00</ele>
        <time>2012-09-18T17:36:31Z</time>
      </trkpt>
      <trkpt lat="41.532925000" lon="1.900692000">
        <ele>81.90</ele>
        <time>2012-09-18T17:36:34Z</time>
      </trkpt>
      <trkpt lat="41.532786000" lon="1.900841000">
        <ele>82.10</ele>
        <time>2012-09-18T17:36:38Z</time>
      </trkpt>
      <trkpt lat="41.532659000" lon="1.901006000">
        <ele>82.70</ele>
        <time>2012-09-18T17:36:43Z</time>
      </trkpt>
      <trkpt lat="41.532543000" lon="1.901182000">
        <ele>82.70</ele>
        <time>2012-09-18T17:36:47Z</time>
      </trkpt>
      <trkpt lat="41.532410000" lon="1.901429000">
        <ele>82.90</ele>
        <time>2012-09-18T17:36:52Z</time>
      </trkpt>
      <trkpt lat="41.532297000" lon="1.901646000">
        <ele>82.40</ele>
        <time>2012-09-18T17:36:55Z</time>
      </trkpt>
      <trkpt lat="41.532197000" lon="1.901861000">
        <ele>82.50</ele>
        <time>2012-09-18T17:36:59Z</time>
      </trkpt>
      <trkpt lat="41.532113000" lon="1.902086000">
        <ele>82.80</ele>
        <time>2012-09-18T17:37:04Z</time>
      </trkpt>
      <trkpt lat="41.532022000" lon="1.902307000">
        <ele>83.00</ele>
        <time>2012-09-18T17:37:07Z</time>
      </trkpt>
      <trkpt lat="41.531933000" lon="1.902539000">
        <ele>82.80</ele>
        <time>2012-09-18T17:37:11Z</time>
      </trkpt>
      <trkpt lat="41.531850000" lon="1.902765000">
        <ele>83.30</ele>
        <time>2012-09-18T17:37:16Z</time>
      </trkpt>
      <trkpt lat="41.531763000" lon="1.902995000">
        <ele>83.20</ele>
        <time>2012-09-18T17:37:20Z</time>
      </trkpt>
      <trkpt lat="41.531665000" lon="1.903214000">
        <ele>83.40</ele>
        <time>2012-09-18T17:37:23Z</time>
      </trkpt>
      <trkpt lat="41.531553000" lon="1.903415000">
        <ele>83.70</ele>
        <time>2012-09-18T17:37:28Z</time>
      </trkpt>
      <trkpt lat="41.531412000" lon="1.903636000">
        <ele>84.10</ele>
        <time>2012-09-18T17:37:32Z</time>
      </trkpt>
      <trkpt lat="41.531261000" lon="1.903836000">
        <ele>84.00</ele>
        <time>2012-09-18T17:37:37Z</time>
      </trkpt>
      <trkpt lat="41.531096000" lon="1.904033000">
        <ele>84.10</ele>
        <time>2012-09-18T17:37:42Z</time>
      </trkpt>
      <trkpt lat="41.530912000" lon="1.904206000">
        <ele>83.70</ele>
        <time>2012-09-18T17:37:48Z</time>
      </trkpt>
      <trkpt lat="41.530751000" lon="1.904323000">
        <ele>84.30</ele>
        <time>2012-09-18T17:37:51Z</time>
      </trkpt>
      <trkpt lat="41.530582000" lon="1.904425000">
        <ele>83.70</ele>
        <time>2012-09-18T17:37:56Z</time>
      </trkpt>
      <trkpt lat="41.530411000" lon="1.904510000">
        <ele>84.00</ele>
        <time>2012-09-18T17:38:00Z</time>
      </trkpt>
      <trkpt lat="41.530190000" lon="1.904579000">
        <ele>84.10</ele>
        <time>2012-09-18T17:38:05Z</time>
      </trkpt>
      <trkpt lat="41.530010000" lon="1.904580000">
        <ele>84.30</ele>
        <time>2012-09-18T17:38:08Z</time>
      </trkpt>
      <trkpt lat="41.529806000" lon="1.904498000">
        <ele>84.30</ele>
        <time>2012-09-18T17:38:14Z</time>
      </trkpt>
      <trkpt lat="41.529641000" lon="1.904358000">
        <ele>84.20</ele>
        <time>2012-09-18T17:38:19Z</time>
      </trkpt>
      <trkpt lat="41.529497000" lon="1.904212000">
        <ele>83.20</ele>
        <time>2012-09-18T17:38:22Z</time>
      </trkpt>
      <trkpt lat="41.529460000" lon="1.904440000">
        <ele>81.20</ele>
        <time>2012-09-18T17:38:28Z</time>
      </trkpt>
      <trkpt lat="41.529534000" lon="1.904677000">
        <ele>78.20</ele>
        <time>2012-09-18T17:38:31Z</time>
      </trkpt>
      <trkpt lat="41.529601000" lon="1.904979000">
        <ele>75.50</ele>
        <time>2012-09-18T17:38:33Z</time>
      </trkpt>
      <trkpt lat="41.529689000" lon="1.905266000">
        <ele>75.70</ele>
        <time>2012-09-18T17:38:36Z</time>
      </trkpt>
      <trkpt lat="41.529777000" lon="1.905494000">
        <ele>77.40</ele>
        <time>2012-09-18T17:38:40Z</time>
      </trkpt>
      <trkpt lat="41.529864000" lon="1.905755000">
        <ele>76.90</ele>
        <time>2012-09-18T17:38:43Z</time>
      </trkpt>
      <trkpt lat="41.529907000" lon="1.906019000">
        <ele>76.20</ele>
        <time>2012-09-18T17:38:47Z</time>
      </trkpt>
      <trkpt lat="41.529991000" lon="1.906309000">
        <ele>75.90</ele>
        <time>2012-09-18T17:38:52Z</time>
      </trkpt>
      <trkpt lat="41.530076000" lon="1.906608000">
        <ele>74.30</ele>
        <time>2012-09-18T17:38:55Z</time>
      </trkpt>
      <trkpt lat="41.530084000" lon="1.906880000">
        <ele>72.00</ele>
        <time>2012-09-18T17:38:59Z</time>
      </trkpt>
      <trkpt lat="41.530148000" lon="1.907195000">
        <ele>70.30</ele>
        <time>2012-09-18T17:39:01Z</time>
      </trkpt>
      <trkpt lat="41.530227000" lon="1.907487000">
        <ele>70.00</ele>
        <time>2012-09-18T17:39:04Z</time>
      </trkpt>
      <trkpt lat="41.530293000" lon="1.907776000">
        <ele>68.70</ele>
        <time>2012-09-18T17:39:08Z</time>
      </trkpt>
      <trkpt lat="41.530314000" lon="1.908064000">
        <ele>66.80</ele>
        <time>2012-09-18T17:39:11Z</time>
      </trkpt>
      <trkpt lat="41.530211000" lon="1.908280000">
        <ele>65.50</ele>
        <time>2012-09-18T17:39:13Z</time>
      </trkpt>
      <trkpt lat="41.530015000" lon="1.908361000">
        <ele>64.40</ele>
        <time>2012-09-18T17:39:16Z</time>
      </trkpt>
      <trkpt lat="41.529816000" lon="1.908448000">
        <ele>64.40</ele>
        <time>2012-09-18T17:39:20Z</time>
      </trkpt>
      <trkpt lat="41.529651000" lon="1.908583000">
        <ele>65.10</ele>
        <time>2012-09-18T17:39:23Z</time>
      </trkpt>
      <trkpt lat="41.529581000" lon="1.908841000">
        <ele>67.10</ele>
        <time>2012-09-18T17:39:27Z</time>
      </trkpt>
      <trkpt lat="41.529561000" lon="1.909097000">
        <ele>66.60</ele>
        <time>2012-09-18T17:39:30Z</time>
      </trkpt>
      <trkpt lat="41.529517000" lon="1.909350000">
        <ele>66.70</ele>
        <time>2012-09-18T17:39:34Z</time>
      </trkpt>
      <trkpt lat="41.529473000" lon="1.909611000">
        <ele>66.70</ele>
        <time>2012-09-18T17:39:39Z</time>
      </trkpt>
      <trkpt lat="41.529418000" lon="1.909868000">
        <ele>66.20</ele>
        <time>2012-09-18T17:39:42Z</time>
      </trkpt>
      <trkpt lat="41.529349000" lon="1.910119000">
        <ele>66.40</ele>
        <time>2012-09-18T17:39:46Z</time>
      </trkpt>
      <trkpt lat="41.529295000" lon="1.910381000">
        <ele>66.10</ele>
        <time>2012-09-18T17:39:51Z</time>
      </trkpt>
      <trkpt lat="41.529220000" lon="1.910629000">
        <ele>66.00</ele>
        <time>2012-09-18T17:39:55Z</time>
      </trkpt>
      <trkpt lat="41.529065000" lon="1.910740000">
        <ele>66.80</ele>
        <time>2012-09-18T17:39:58Z</time>
      </trkpt>
      <trkpt lat="41.528872000" lon="1.910679000">
        <ele>66.50</ele>
        <time>2012-09-18T17:40:02Z</time>
      </trkpt>
      <trkpt lat="41.528487000" lon="1.910556000">
        <ele>66.30</ele>
        <time>2012-09-18T17:40:10Z</time>
      </trkpt>
      <trkpt lat="41.528288000" lon="1.910521000">
        <ele>66.10</ele>
        <time>2012-09-18T17:40:14Z</time>
      </trkpt>
      <trkpt lat="41.528077000" lon="1.910491000">
        <ele>66.70</ele>
        <time>2012-09-18T17:40:19Z</time>
      </trkpt>
      <trkpt lat="41.527867000" lon="1.910446000">
        <ele>66.20</ele>
        <time>2012-09-18T17:40:23Z</time>
      </trkpt>
      <trkpt lat="41.527665000" lon="1.910389000">
        <ele>66.20</ele>
        <time>2012-09-18T17:40:26Z</time>
      </trkpt>
      <trkpt lat="41.527458000" lon="1.910349000">
        <ele>66.40</ele>
        <time>2012-09-18T17:40:31Z</time>
      </trkpt>
      <trkpt lat="41.527269000" lon="1.910302000">
        <ele>66.40</ele>
        <time>2012-09-18T17:40:35Z</time>
      </trkpt>
      <trkpt lat="41.527067000" lon="1.910257000">
        <ele>66.00</ele>
        <time>2012-09-18T17:40:38Z</time>
      </trkpt>
      <trkpt lat="41.526847000" lon="1.910204000">
        <ele>65.90</ele>
        <time>2012-09-18T17:40:42Z</time>
      </trkpt>
      <trkpt lat="41.526637000" lon="1.910120000">
        <ele>66.00</ele>
        <time>2012-09-18T17:40:47Z</time>
      </trkpt>
      <trkpt lat="41.526435000" lon="1.910018000">
        <ele>65.50</ele>
        <time>2012-09-18T17:40:50Z</time>
      </trkpt>
      <trkpt lat="41.526227000" lon="1.909966000">
        <ele>66.00</ele>
        <time>2012-09-18T17:40:54Z</time>
      </trkpt>
      <trkpt lat="41.526020000" lon="1.909940000">
        <ele>65.80</ele>
        <time>2012-09-18T17:40:59Z</time>
      </trkpt>
      <trkpt lat="41.525812000" lon="1.909918000">
        <ele>66.30</ele>
        <time>2012-09-18T17:41:03Z</time>
      </trkpt>
      <trkpt lat="41.525610000" lon="1.909898000">
        <ele>66.50</ele>
        <time>2012-09-18T17:41:06Z</time>
      </trkpt>
      <trkpt lat="41.525432000" lon="1.909849000">
        <ele>66.80</ele>
        <time>2012-09-18T17:41:11Z</time>
      </trkpt>
      <trkpt lat="41.525239000" lon="1.909757000">
        <ele>68.20</ele>
        <time>2012-09-18T17:41:15Z</time>
      </trkpt>
      <trkpt lat="41.525033000" lon="1.909716000">
        <ele>70.30</ele>
        <time>2012-09-18T17:41:20Z</time>
      </trkpt>
      <trkpt lat="41.524828000" lon="1.909705000">
        <ele>73.60</ele>
        <time>2012-09-18T17:41:25Z</time>
      </trkpt>
      <trkpt lat="41.524633000" lon="1.909679000">
        <ele>76.10</ele>
        <time>2012-09-18T17:41:30Z</time>
      </trkpt>
      <trkpt lat="41.524437000" lon="1.909640000">
        <ele>78.00</ele>
        <time>2012-09-18T17:41:36Z</time>
      </trkpt>
      <trkpt lat="41.524242000" lon="1.909653000">
        <ele>79.30</ele>
        <time>2012-09-18T17:41:41Z</time>
      </trkpt>
      <trkpt lat="41.524055000" lon="1.909637000">
        <ele>80.20</ele>
        <time>2012-09-18T17:41:46Z</time>
      </trkpt>
      <trkpt lat="41.523860000" lon="1.909572000">
        <ele>80.80</ele>
        <time>2012-09-18T17:41:51Z</time>
      </trkpt>
      <trkpt lat="41.523765000" lon="1.909389000">
        <ele>81.80</ele>
        <time>2012-09-18T17:41:58Z</time>
      </trkpt>
      <trkpt lat="41.523718000" lon="1.909152000">
        <ele>82.10</ele>
        <time>2012-09-18T17:42:04Z</time>
      </trkpt>
      <trkpt lat="41.523726000" lon="1.908880000">
        <ele>82.20</ele>
        <time>2012-09-18T17:42:09Z</time>
      </trkpt>
      <trkpt lat="41.523650000" lon="1.908631000">
        <ele>82.90</ele>
        <time>2012-09-18T17:42:16Z</time>
      </trkpt>
      <trkpt lat="41.523520000" lon="1.908417000">
        <ele>83.10</ele>
        <time>2012-09-18T17:42:21Z</time>
      </trkpt>
      <trkpt lat="41.523384000" lon="1.908216000">
        <ele>83.50</ele>
        <time>2012-09-18T17:42:28Z</time>
      </trkpt>
      <trkpt lat="41.523298000" lon="1.908124000">
        <ele>83.90</ele>
        <time>2012-09-18T17:42:35Z</time>
      </trkpt>
      <trkpt lat="41.523430000" lon="1.908308000">
        <ele>83.50</ele>
        <time>2012-09-18T17:42:44Z</time>
      </trkpt>
      <trkpt lat="41.523534000" lon="1.908441000">
        <ele>82.30</ele>
        <time>2012-09-18T17:52:24Z</time>
      </trkpt>
      <trkpt lat="41.523403000" lon="1.908247000">
        <ele>82.50</ele>
        <time>2012-09-18T17:52:32Z</time>
      </trkpt>
      <trkpt lat="41.523290000" lon="1.908068000">
        <ele>82.90</ele>
        <time>2012-09-18T17:52:38Z</time>
      </trkpt>
      <trkpt lat="41.523173000" lon="1.907872000">
        <ele>83.20</ele>
        <time>2012-09-18T17:52:45Z</time>
      </trkpt>
      <trkpt lat="41.523084000" lon="1.907644000">
        <ele>83.50</ele>
        <time>2012-09-18T17:52:50Z</time>
      </trkpt>
      <trkpt lat="41.523013000" lon="1.907388000">
        <ele>83.50</ele>
        <time>2012-09-18T17:52:57Z</time>
      </trkpt>
      <trkpt lat="41.522969000" lon="1.907132000">
        <ele>83.60</ele>
        <time>2012-09-18T17:53:02Z</time>
      </trkpt>
      <trkpt lat="41.522804000" lon="1.907013000">
        <ele>83.70</ele>
        <time>2012-09-18T17:53:09Z</time>
      </trkpt>
      <trkpt lat="41.522781000" lon="1.906933000">
        <ele>84.30</ele>
        <time>2012-09-18T17:53:14Z</time>
      </trkpt>
      <trkpt lat="41.522978000" lon="1.906958000">
        <ele>85.60</ele>
        <time>2012-09-18T17:53:19Z</time>
      </trkpt>
      <trkpt lat="41.523183000" lon="1.906983000">
        <ele>87.40</ele>
        <time>2012-09-18T17:53:25Z</time>
      </trkpt>
      <trkpt lat="41.523267000" lon="1.906942000">
        <ele>88.50</ele>
        <time>2012-09-18T17:53:33Z</time>
      </trkpt>
      <trkpt lat="41.523083000" lon="1.906889000">
        <ele>90.30</ele>
        <time>2012-09-18T17:53:40Z</time>
      </trkpt>
      <trkpt lat="41.523195000" lon="1.906749000">
        <ele>89.10</ele>
        <time>2012-09-18T17:53:47Z</time>
      </trkpt>
      <trkpt lat="41.523263000" lon="1.906727000">
        <ele>87.90</ele>
        <time>2012-09-18T17:53:54Z</time>
      </trkpt>
      <trkpt lat="41.523034000" lon="1.906721000">
        <ele>85.40</ele>
        <time>2012-09-18T17:53:59Z</time>
      </trkpt>
      <trkpt lat="41.522848000" lon="1.906723000">
        <ele>83.80</ele>
        <time>2012-09-18T17:54:03Z</time>
      </trkpt>
      <trkpt lat="41.522664000" lon="1.906591000">
        <ele>83.50</ele>
        <time>2012-09-18T17:54:06Z</time>
      </trkpt>
      <trkpt lat="41.522525000" lon="1.906350000">
        <ele>84.60</ele>
        <time>2012-09-18T17:54:10Z</time>
      </trkpt>
      <trkpt lat="41.522354000" lon="1.906155000">
        <ele>85.60</ele>
        <time>2012-09-18T17:54:15Z</time>
      </trkpt>
      <trkpt lat="41.522199000" lon="1.905980000">
        <ele>85.90</ele>
        <time>2012-09-18T17:54:19Z</time>
      </trkpt>
      <trkpt lat="41.522124000" lon="1.905746000">
        <ele>86.50</ele>
        <time>2012-09-18T17:54:24Z</time>
      </trkpt>
      <trkpt lat="41.522048000" lon="1.905501000">
        <ele>87.70</ele>
        <time>2012-09-18T17:54:29Z</time>
      </trkpt>
      <trkpt lat="41.521930000" lon="1.905275000">
        <ele>88.40</ele>
        <time>2012-09-18T17:54:34Z</time>
      </trkpt>
      <trkpt lat="41.521806000" lon="1.905070000">
        <ele>89.80</ele>
        <time>2012-09-18T17:54:38Z</time>
      </trkpt>
      <trkpt lat="41.521641000" lon="1.904921000">
        <ele>91.00</ele>
        <time>2012-09-18T17:54:43Z</time>
      </trkpt>
      <trkpt lat="41.521435000" lon="1.904847000">
        <ele>92.50</ele>
        <time>2012-09-18T17:54:48Z</time>
      </trkpt>
      <trkpt lat="41.521253000" lon="1.904784000">
        <ele>93.50</ele>
        <time>2012-09-18T17:54:54Z</time>
      </trkpt>
      <trkpt lat="41.521078000" lon="1.904702000">
        <ele>94.40</ele>
        <time>2012-09-18T17:54:59Z</time>
      </trkpt>
      <trkpt lat="41.520912000" lon="1.904554000">
        <ele>96.60</ele>
        <time>2012-09-18T17:55:04Z</time>
      </trkpt>
      <trkpt lat="41.520776000" lon="1.904330000">
        <ele>98.70</ele>
        <time>2012-09-18T17:55:11Z</time>
      </trkpt>
      <trkpt lat="41.520682000" lon="1.904109000">
        <ele>100.40</ele>
        <time>2012-09-18T17:55:18Z</time>
      </trkpt>
      <trkpt lat="41.520536000" lon="1.903955000">
        <ele>101.40</ele>
        <time>2012-09-18T17:55:23Z</time>
      </trkpt>
      <trkpt lat="41.520374000" lon="1.903811000">
        <ele>101.90</ele>
        <time>2012-09-18T17:55:30Z</time>
      </trkpt>
      <trkpt lat="41.520258000" lon="1.903617000">
        <ele>101.40</ele>
        <time>2012-09-18T17:55:35Z</time>
      </trkpt>
      <trkpt lat="41.520036000" lon="1.903197000">
        <ele>100.80</ele>
        <time>2012-09-18T17:55:44Z</time>
      </trkpt>
      <trkpt lat="41.519757000" lon="1.902796000">
        <ele>101.00</ele>
        <time>2012-09-18T17:55:51Z</time>
      </trkpt>
      <trkpt lat="41.519582000" lon="1.902638000">
        <ele>100.40</ele>
        <time>2012-09-18T17:55:56Z</time>
      </trkpt>
      <trkpt lat="41.519403000" lon="1.902474000">
        <ele>100.10</ele>
        <time>2012-09-18T17:56:00Z</time>
      </trkpt>
      <trkpt lat="41.519231000" lon="1.902300000">
        <ele>100.10</ele>
        <time>2012-09-18T17:56:03Z</time>
      </trkpt>
      <trkpt lat="41.519032000" lon="1.902168000">
        <ele>100.30</ele>
        <time>2012-09-18T17:56:07Z</time>
      </trkpt>
      <trkpt lat="41.518813000" lon="1.902126000">
        <ele>100.60</ele>
        <time>2012-09-18T17:56:12Z</time>
      </trkpt>
      <trkpt lat="41.518590000" lon="1.902107000">
        <ele>101.00</ele>
        <time>2012-09-18T17:56:15Z</time>
      </trkpt>
      <trkpt lat="41.518376000" lon="1.902096000">
        <ele>101.50</ele>
        <time>2012-09-18T17:56:19Z</time>
      </trkpt>
      <trkpt lat="41.518182000" lon="1.902142000">
        <ele>102.10</ele>
        <time>2012-09-18T17:56:24Z</time>
      </trkpt>
      <trkpt lat="41.517998000" lon="1.902207000">
        <ele>102.50</ele>
        <time>2012-09-18T17:56:28Z</time>
      </trkpt>
      <trkpt lat="41.517783000" lon="1.902207000">
        <ele>102.50</ele>
        <time>2012-09-18T17:56:33Z</time>
      </trkpt>
      <trkpt lat="41.517595000" lon="1.902122000">
        <ele>100.00</ele>
        <time>2012-09-18T17:56:36Z</time>
      </trkpt>
      <trkpt lat="41.517405000" lon="1.901994000">
        <ele>98.60</ele>
        <time>2012-09-18T17:56:40Z</time>
      </trkpt>
      <trkpt lat="41.517216000" lon="1.901884000">
        <ele>97.10</ele>
        <time>2012-09-18T17:56:45Z</time>
      </trkpt>
      <trkpt lat="41.516993000" lon="1.901826000">
        <ele>96.90</ele>
        <time>2012-09-18T17:56:48Z</time>
      </trkpt>
      <trkpt lat="41.516767000" lon="1.901876000">
        <ele>96.20</ele>
        <time>2012-09-18T17:56:52Z</time>
      </trkpt>
      <trkpt lat="41.516584000" lon="1.902009000">
        <ele>97.20</ele>
        <time>2012-09-18T17:56:57Z</time>
      </trkpt>
      <trkpt lat="41.516431000" lon="1.902122000">
        <ele>98.90</ele>
        <time>2012-09-18T17:57:01Z</time>
      </trkpt>
      <trkpt lat="41.516259000" lon="1.902101000">
        <ele>101.70</ele>
        <time>2012-09-18T17:57:06Z</time>
      </trkpt>
      <trkpt lat="41.516177000" lon="1.901861000">
        <ele>104.00</ele>
        <time>2012-09-18T17:57:11Z</time>
      </trkpt>
      <trkpt lat="41.516142000" lon="1.901598000">
        <ele>105.20</ele>
        <time>2012-09-18T17:57:18Z</time>
      </trkpt>
      <trkpt lat="41.516106000" lon="1.901331000">
        <ele>105.90</ele>
        <time>2012-09-18T17:57:23Z</time>
      </trkpt>
      <trkpt lat="41.516073000" lon="1.901058000">
        <ele>106.70</ele>
        <time>2012-09-18T17:57:30Z</time>
      </trkpt>
      <trkpt lat="41.516043000" lon="1.900793000">
        <ele>107.30</ele>
        <time>2012-09-18T17:57:36Z</time>
      </trkpt>
      <trkpt lat="41.516019000" lon="1.900511000">
        <ele>108.00</ele>
        <time>2012-09-18T17:57:41Z</time>
      </trkpt>
      <trkpt lat="41.515991000" lon="1.900261000">
        <ele>107.90</ele>
        <time>2012-09-18T17:57:46Z</time>
      </trkpt>
      <trkpt lat="41.515955000" lon="1.900008000">
        <ele>108.60</ele>
        <time>2012-09-18T17:57:51Z</time>
      </trkpt>
      <trkpt lat="41.515924000" lon="1.899769000">
        <ele>109.00</ele>
        <time>2012-09-18T17:57:58Z</time>
      </trkpt>
      <trkpt lat="41.515907000" lon="1.899526000">
        <ele>109.50</ele>
        <time>2012-09-18T17:58:02Z</time>
      </trkpt>
      <trkpt lat="41.515874000" lon="1.899287000">
        <ele>110.10</ele>
        <time>2012-09-18T17:58:07Z</time>
      </trkpt>
      <trkpt lat="41.515843000" lon="1.899010000">
        <ele>110.10</ele>
        <time>2012-09-18T17:58:14Z</time>
      </trkpt>
      <trkpt lat="41.515798000" lon="1.898778000">
        <ele>110.70</ele>
        <time>2012-09-18T17:58:21Z</time>
      </trkpt>
      <trkpt lat="41.515608000" lon="1.898820000">
        <ele>110.80</ele>
        <time>2012-09-18T17:58:26Z</time>
      </trkpt>
      <trkpt lat="41.515426000" lon="1.898917000">
        <ele>111.10</ele>
        <time>2012-09-18T17:58:31Z</time>
      </trkpt>
      <trkpt lat="41.515244000" lon="1.899023000">
        <ele>111.70</ele>
        <time>2012-09-18T17:58:36Z</time>
      </trkpt>
      <trkpt lat="41.515067000" lon="1.899139000">
        <ele>111.60</ele>
        <time>2012-09-18T17:58:42Z</time>
      </trkpt>
      <trkpt lat="41.514885000" lon="1.899241000">
        <ele>112.50</ele>
        <time>2012-09-18T17:58:47Z</time>
      </trkpt>
      <trkpt lat="41.514753000" lon="1.899108000">
        <ele>113.20</ele>
        <time>2012-09-18T17:58:52Z</time>
      </trkpt>
      <trkpt lat="41.514694000" lon="1.898875000">
        <ele>112.70</ele>
        <time>2012-09-18T17:58:56Z</time>
      </trkpt>
      <trkpt lat="41.514616000" lon="1.898638000">
        <ele>112.80</ele>
        <time>2012-09-18T17:58:59Z</time>
      </trkpt>
      <trkpt lat="41.514521000" lon="1.898450000">
        <ele>113.00</ele>
        <time>2012-09-18T17:59:04Z</time>
      </trkpt>
      <trkpt lat="41.514302000" lon="1.898495000">
        <ele>112.50</ele>
        <time>2012-09-18T17:59:10Z</time>
      </trkpt>
      <trkpt lat="41.514134000" lon="1.898379000">
        <ele>112.90</ele>
        <time>2012-09-18T17:59:13Z</time>
      </trkpt>
      <trkpt lat="41.514051000" lon="1.898160000">
        <ele>112.30</ele>
        <time>2012-09-18T17:59:18Z</time>
      </trkpt>
      <trkpt lat="41.514100000" lon="1.897927000">
        <ele>111.60</ele>
        <time>2012-09-18T17:59:22Z</time>
      </trkpt>
      <trkpt lat="41.514161000" lon="1.897670000">
        <ele>111.50</ele>
        <time>2012-09-18T17:59:25Z</time>
      </trkpt>
      <trkpt lat="41.514177000" lon="1.897397000">
        <ele>111.10</ele>
        <time>2012-09-18T17:59:29Z</time>
      </trkpt>
      <trkpt lat="41.514144000" lon="1.897133000">
        <ele>111.00</ele>
        <time>2012-09-18T17:59:34Z</time>
      </trkpt>
      <trkpt lat="41.513947000" lon="1.897017000">
        <ele>108.40</ele>
        <time>2012-09-18T17:59:37Z</time>
      </trkpt>
      <trkpt lat="41.513922000" lon="1.896756000">
        <ele>107.90</ele>
        <time>2012-09-18T17:59:41Z</time>
      </trkpt>
      <trkpt lat="41.514022000" lon="1.896483000">
        <ele>110.50</ele>
        <time>2012-09-18T17:59:46Z</time>
      </trkpt>
      <trkpt lat="41.514123000" lon="1.896251000">
        <ele>111.90</ele>
        <time>2012-09-18T17:59:51Z</time>
      </trkpt>
      <trkpt lat="41.514190000" lon="1.895971000">
        <ele>109.90</ele>
        <time>2012-09-18T18:00:00Z</time>
      </trkpt>
      <trkpt lat="41.514146000" lon="1.895712000">
        <ele>108.20</ele>
        <time>2012-09-18T18:00:05Z</time>
      </trkpt>
      <trkpt lat="41.514023000" lon="1.895491000">
        <ele>104.70</ele>
        <time>2012-09-18T18:00:12Z</time>
      </trkpt>
      <trkpt lat="41.514084000" lon="1.895290000">
        <ele>105.40</ele>
        <time>2012-09-18T18:00:16Z</time>
      </trkpt>
      <trkpt lat="41.514191000" lon="1.895121000">
        <ele>105.30</ele>
        <time>2012-09-18T18:00:21Z</time>
      </trkpt>
      <trkpt lat="41.514088000" lon="1.894861000">
        <ele>102.50</ele>
        <time>2012-09-18T18:00:26Z</time>
      </trkpt>
      <trkpt lat="41.513984000" lon="1.894647000">
        <ele>101.60</ele>
        <time>2012-09-18T18:00:30Z</time>
      </trkpt>
      <trkpt lat="41.513960000" lon="1.894397000">
        <ele>97.80</ele>
        <time>2012-09-18T18:00:35Z</time>
      </trkpt>
      <trkpt lat="41.514066000" lon="1.894183000">
        <ele>96.80</ele>
        <time>2012-09-18T18:00:40Z</time>
      </trkpt>
      <trkpt lat="41.514133000" lon="1.893936000">
        <ele>98.00</ele>
        <time>2012-09-18T18:00:45Z</time>
      </trkpt>
      <trkpt lat="41.514324000" lon="1.893858000">
        <ele>98.30</ele>
        <time>2012-09-18T18:00:51Z</time>
      </trkpt>
      <trkpt lat="41.514492000" lon="1.893782000">
        <ele>98.70</ele>
        <time>2012-09-18T18:00:56Z</time>
      </trkpt>
      <trkpt lat="41.514575000" lon="1.893586000">
        <ele>102.40</ele>
        <time>2012-09-18T18:01:01Z</time>
      </trkpt>
      <trkpt lat="41.514456000" lon="1.893356000">
        <ele>103.10</ele>
        <time>2012-09-18T18:01:08Z</time>
      </trkpt>
      <trkpt lat="41.514268000" lon="1.893196000">
        <ele>100.30</ele>
        <time>2012-09-18T18:01:15Z</time>
      </trkpt>
      <trkpt lat="41.514100000" lon="1.893027000">
        <ele>100.30</ele>
        <time>2012-09-18T18:01:36Z</time>
      </trkpt>
      <trkpt lat="41.514018000" lon="1.892792000">
        <ele>102.30</ele>
        <time>2012-09-18T18:01:46Z</time>
      </trkpt>
      <trkpt lat="41.513974000" lon="1.892540000">
        <ele>102.60</ele>
        <time>2012-09-18T18:01:53Z</time>
      </trkpt>
      <trkpt lat="41.514013000" lon="1.892288000">
        <ele>105.60</ele>
        <time>2012-09-18T18:02:00Z</time>
      </trkpt>
      <trkpt lat="41.514024000" lon="1.892040000">
        <ele>105.40</ele>
        <time>2012-09-18T18:02:12Z</time>
      </trkpt>
      <trkpt lat="41.514135000" lon="1.891855000">
        <ele>103.80</ele>
        <time>2012-09-18T18:02:18Z</time>
      </trkpt>
      <trkpt lat="41.514271000" lon="1.891641000">
        <ele>103.90</ele>
        <time>2012-09-18T18:02:25Z</time>
      </trkpt>
      <trkpt lat="41.514312000" lon="1.891353000">
        <ele>105.10</ele>
        <time>2012-09-18T18:02:30Z</time>
      </trkpt>
      <trkpt lat="41.514275000" lon="1.891102000">
        <ele>104.50</ele>
        <time>2012-09-18T18:02:35Z</time>
      </trkpt>
      <trkpt lat="41.514349000" lon="1.890872000">
        <ele>104.60</ele>
        <time>2012-09-18T18:02:40Z</time>
      </trkpt>
      <trkpt lat="41.514429000" lon="1.890667000">
        <ele>106.90</ele>
        <time>2012-09-18T18:02:47Z</time>
      </trkpt>
      <trkpt lat="41.514601000" lon="1.890577000">
        <ele>106.60</ele>
        <time>2012-09-18T18:02:54Z</time>
      </trkpt>
      <trkpt lat="41.514556000" lon="1.890328000">
        <ele>106.70</ele>
        <time>2012-09-18T18:03:01Z</time>
      </trkpt>
      <trkpt lat="41.514501000" lon="1.890087000">
        <ele>107.00</ele>
        <time>2012-09-18T18:03:08Z</time>
      </trkpt>
      <trkpt lat="41.514552000" lon="1.889837000">
        <ele>107.50</ele>
        <time>2012-09-18T18:03:17Z</time>
      </trkpt>
      <trkpt lat="41.514671000" lon="1.889641000">
        <ele>108.10</ele>
        <time>2012-09-18T18:03:24Z</time>
      </trkpt>
      <trkpt lat="41.514787000" lon="1.889453000">
        <ele>107.90</ele>
        <time>2012-09-18T18:03:31Z</time>
      </trkpt>
      <trkpt lat="41.514876000" lon="1.889220000">
        <ele>108.30</ele>
        <time>2012-09-18T18:03:36Z</time>
      </trkpt>
      <trkpt lat="41.515007000" lon="1.889021000">
        <ele>108.70</ele>
        <time>2012-09-18T18:03:41Z</time>
      </trkpt>
      <trkpt lat="41.514999000" lon="1.888771000">
        <ele>108.50</ele>
        <time>2012-09-18T18:03:48Z</time>
      </trkpt>
      <trkpt lat="41.514909000" lon="1.888519000">
        <ele>109.40</ele>
        <time>2012-09-18T18:03:53Z</time>
      </trkpt>
      <trkpt lat="41.515038000" lon="1.888377000">
        <ele>109.90</ele>
        <time>2012-09-18T18:03:59Z</time>
      </trkpt>
      <trkpt lat="41.515247000" lon="1.888345000">
        <ele>109.80</ele>
        <time>2012-09-18T18:04:04Z</time>
      </trkpt>
      <trkpt lat="41.515291000" lon="1.888054000">
        <ele>110.50</ele>
        <time>2012-09-18T18:04:11Z</time>
      </trkpt>
      <trkpt lat="41.515216000" lon="1.887768000">
        <ele>111.40</ele>
        <time>2012-09-18T18:04:16Z</time>
      </trkpt>
      <trkpt lat="41.515280000" lon="1.887519000">
        <ele>112.80</ele>
        <time>2012-09-18T18:04:23Z</time>
      </trkpt>
      <trkpt lat="41.515407000" lon="1.887321000">
        <ele>114.30</ele>
        <time>2012-09-18T18:04:28Z</time>
      </trkpt>
      <trkpt lat="41.515515000" lon="1.887051000">
        <ele>113.10</ele>
        <time>2012-09-18T18:04:35Z</time>
      </trkpt>
      <trkpt lat="41.515547000" lon="1.886787000">
        <ele>113.90</ele>
        <time>2012-09-18T18:04:42Z</time>
      </trkpt>
      <trkpt lat="41.515575000" lon="1.886530000">
        <ele>114.10</ele>
        <time>2012-09-18T18:04:49Z</time>
      </trkpt>
      <trkpt lat="41.515543000" lon="1.886265000">
        <ele>115.50</ele>
        <time>2012-09-18T18:04:58Z</time>
      </trkpt>
      <trkpt lat="41.515615000" lon="1.886036000">
        <ele>115.90</ele>
        <time>2012-09-18T18:05:05Z</time>
      </trkpt>
      <trkpt lat="41.515672000" lon="1.885771000">
        <ele>116.60</ele>
        <time>2012-09-18T18:05:12Z</time>
      </trkpt>
      <trkpt lat="41.515751000" lon="1.885494000">
        <ele>117.20</ele>
        <time>2012-09-18T18:05:19Z</time>
      </trkpt>
      <trkpt lat="41.515784000" lon="1.885235000">
        <ele>118.50</ele>
        <time>2012-09-18T18:05:45Z</time>
      </trkpt>
      <trkpt lat="41.515828000" lon="1.885003000">
        <ele>117.80</ele>
        <time>2012-09-18T18:05:55Z</time>
      </trkpt>
      <trkpt lat="41.515924000" lon="1.884777000">
        <ele>118.40</ele>
        <time>2012-09-18T18:06:02Z</time>
      </trkpt>
      <trkpt lat="41.516079000" lon="1.884598000">
        <ele>118.90</ele>
        <time>2012-09-18T18:06:09Z</time>
      </trkpt>
      <trkpt lat="41.516137000" lon="1.884369000">
        <ele>119.30</ele>
        <time>2012-09-18T18:06:16Z</time>
      </trkpt>
      <trkpt lat="41.516036000" lon="1.884152000">
        <ele>119.80</ele>
        <time>2012-09-18T18:06:23Z</time>
      </trkpt>
      <trkpt lat="41.515875000" lon="1.883984000">
        <ele>120.20</ele>
        <time>2012-09-18T18:06:32Z</time>
      </trkpt>
      <trkpt lat="41.515715000" lon="1.883809000">
        <ele>120.80</ele>
        <time>2012-09-18T18:06:39Z</time>
      </trkpt>
      <trkpt lat="41.515635000" lon="1.883554000">
        <ele>121.00</ele>
        <time>2012-09-18T18:06:46Z</time>
      </trkpt>
      <trkpt lat="41.515650000" lon="1.883272000">
        <ele>121.00</ele>
        <time>2012-09-18T18:06:51Z</time>
      </trkpt>
      <trkpt lat="41.515797000" lon="1.883149000">
        <ele>121.30</ele>
        <time>2012-09-18T18:06:58Z</time>
      </trkpt>
      <trkpt lat="41.515889000" lon="1.882914000">
        <ele>121.30</ele>
        <time>2012-09-18T18:07:05Z</time>
      </trkpt>
      <trkpt lat="41.515864000" lon="1.882653000">
        <ele>121.70</ele>
        <time>2012-09-18T18:07:12Z</time>
      </trkpt>
      <trkpt lat="41.515774000" lon="1.882420000">
        <ele>122.10</ele>
        <time>2012-09-18T18:07:19Z</time>
      </trkpt>
      <trkpt lat="41.515693000" lon="1.882154000">
        <ele>122.20</ele>
        <time>2012-09-18T18:07:26Z</time>
      </trkpt>
      <trkpt lat="41.515642000" lon="1.881883000">
        <ele>122.20</ele>
        <time>2012-09-18T18:07:33Z</time>
      </trkpt>
      <trkpt lat="41.515605000" lon="1.881602000">
        <ele>122.20</ele>
        <time>2012-09-18T18:07:40Z</time>
      </trkpt>
      <trkpt lat="41.515546000" lon="1.881345000">
        <ele>122.80</ele>
        <time>2012-09-18T18:07:47Z</time>
      </trkpt>
      <trkpt lat="41.515470000" lon="1.881069000">
        <ele>123.40</ele>
        <time>2012-09-18T18:07:54Z</time>
      </trkpt>
      <trkpt lat="41.515462000" lon="1.880791000">
        <ele>123.10</ele>
        <time>2012-09-18T18:08:01Z</time>
      </trkpt>
      <trkpt lat="41.515406000" lon="1.880468000">
        <ele>123.40</ele>
        <time>2012-09-18T18:08:08Z</time>
      </trkpt>
      <trkpt lat="41.515335000" lon="1.880189000">
        <ele>124.50</ele>
        <time>2012-09-18T18:08:15Z</time>
      </trkpt>
      <trkpt lat="41.515202000" lon="1.879986000">
        <ele>125.90</ele>
        <time>2012-09-18T18:08:22Z</time>
      </trkpt>
      <trkpt lat="41.515197000" lon="1.879736000">
        <ele>126.40</ele>
        <time>2012-09-18T18:08:29Z</time>
      </trkpt>
      <trkpt lat="41.515204000" lon="1.879428000">
        <ele>125.90</ele>
        <time>2012-09-18T18:08:34Z</time>
      </trkpt>
      <trkpt lat="41.515113000" lon="1.879217000">
        <ele>126.10</ele>
        <time>2012-09-18T18:08:41Z</time>
      </trkpt>
      <trkpt lat="41.514987000" lon="1.878999000">
        <ele>126.70</ele>
        <time>2012-09-18T18:08:48Z</time>
      </trkpt>
      <trkpt lat="41.515000000" lon="1.878739000">
        <ele>127.10</ele>
        <time>2012-09-18T18:08:55Z</time>
      </trkpt>
      <trkpt lat="41.514953000" lon="1.878491000">
        <ele>127.50</ele>
        <time>2012-09-18T18:09:02Z</time>
      </trkpt>
      <trkpt lat="41.514789000" lon="1.878242000">
        <ele>127.90</ele>
        <time>2012-09-18T18:09:12Z</time>
      </trkpt>
      <trkpt lat="41.514673000" lon="1.877989000">
        <ele>128.40</ele>
        <time>2012-09-18T18:09:19Z</time>
      </trkpt>
      <trkpt lat="41.514565000" lon="1.877684000">
        <ele>129.00</ele>
        <time>2012-09-18T18:09:24Z</time>
      </trkpt>
      <trkpt lat="41.514422000" lon="1.877428000">
        <ele>129.40</ele>
        <time>2012-09-18T18:09:31Z</time>
      </trkpt>
      <trkpt lat="41.514276000" lon="1.877189000">
        <ele>129.90</ele>
        <time>2012-09-18T18:09:38Z</time>
      </trkpt>
      <trkpt lat="41.514067000" lon="1.877051000">
        <ele>129.90</ele>
        <time>2012-09-18T18:09:47Z</time>
      </trkpt>
      <trkpt lat="41.513887000" lon="1.876895000">
        <ele>132.90</ele>
        <time>2012-09-18T18:09:54Z</time>
      </trkpt>
      <trkpt lat="41.513734000" lon="1.876732000">
        <ele>134.00</ele>
        <time>2012-09-18T18:10:01Z</time>
      </trkpt>
      <trkpt lat="41.513577000" lon="1.876552000">
        <ele>133.20</ele>
        <time>2012-09-18T18:10:08Z</time>
      </trkpt>
      <trkpt lat="41.513551000" lon="1.876272000">
        <ele>132.90</ele>
        <time>2012-09-18T18:10:13Z</time>
      </trkpt>
      <trkpt lat="41.513519000" lon="1.876053000">
        <ele>134.50</ele>
        <time>2012-09-18T18:10:18Z</time>
      </trkpt>
      <trkpt lat="41.513328000" lon="1.875995000">
        <ele>132.10</ele>
        <time>2012-09-18T18:10:24Z</time>
      </trkpt>
      <trkpt lat="41.513199000" lon="1.875825000">
        <ele>132.60</ele>
        <time>2012-09-18T18:10:31Z</time>
      </trkpt>
      <trkpt lat="41.513209000" lon="1.875575000">
        <ele>133.40</ele>
        <time>2012-09-18T18:10:38Z</time>
      </trkpt>
      <trkpt lat="41.513166000" lon="1.875311000">
        <ele>134.00</ele>
        <time>2012-09-18T18:10:46Z</time>
      </trkpt>
      <trkpt lat="41.513160000" lon="1.875039000">
        <ele>134.10</ele>
        <time>2012-09-18T18:10:53Z</time>
      </trkpt>
      <trkpt lat="41.513303000" lon="1.874907000">
        <ele>135.00</ele>
        <time>2012-09-18T18:11:02Z</time>
      </trkpt>
      <trkpt lat="41.513391000" lon="1.875185000">
        <ele>139.90</ele>
        <time>2012-09-18T18:11:16Z</time>
      </trkpt>
      <trkpt lat="41.513547000" lon="1.875201000">
        <ele>144.60</ele>
        <time>2012-09-18T18:11:26Z</time>
      </trkpt>
      <trkpt lat="41.513746000" lon="1.875163000">
        <ele>147.40</ele>
        <time>2012-09-18T18:11:35Z</time>
      </trkpt>
      <trkpt lat="41.513879000" lon="1.874993000">
        <ele>151.50</ele>
        <time>2012-09-18T18:11:46Z</time>
      </trkpt>
      <trkpt lat="41.513991000" lon="1.875035000">
        <ele>153.10</ele>
        <time>2012-09-18T18:11:58Z</time>
      </trkpt>
      <trkpt lat="41.514112000" lon="1.874871000">
        <ele>154.50</ele>
        <time>2012-09-18T18:12:10Z</time>
      </trkpt>
      <trkpt lat="41.514221000" lon="1.874677000">
        <ele>157.40</ele>
        <time>2012-09-18T18:12:20Z</time>
      </trkpt>
      <trkpt lat="41.514317000" lon="1.874463000">
        <ele>160.50</ele>
        <time>2012-09-18T18:12:31Z</time>
      </trkpt>
      <trkpt lat="41.514466000" lon="1.874295000">
        <ele>163.50</ele>
        <time>2012-09-18T18:12:41Z</time>
      </trkpt>
      <trkpt lat="41.514576000" lon="1.874093000">
        <ele>165.40</ele>
        <time>2012-09-18T18:12:50Z</time>
      </trkpt>
      <trkpt lat="41.514669000" lon="1.873871000">
        <ele>167.00</ele>
        <time>2012-09-18T18:12:59Z</time>
      </trkpt>
      <trkpt lat="41.514748000" lon="1.873645000">
        <ele>168.30</ele>
        <time>2012-09-18T18:13:06Z</time>
      </trkpt>
      <trkpt lat="41.514865000" lon="1.873435000">
        <ele>169.80</ele>
        <time>2012-09-18T18:13:14Z</time>
      </trkpt>
      <trkpt lat="41.514969000" lon="1.873228000">
        <ele>172.50</ele>
        <time>2012-09-18T18:13:23Z</time>
      </trkpt>
      <trkpt lat="41.515079000" lon="1.873009000">
        <ele>175.30</ele>
        <time>2012-09-18T18:13:34Z</time>
      </trkpt>
      <trkpt lat="41.515184000" lon="1.872794000">
        <ele>176.50</ele>
        <time>2012-09-18T18:13:42Z</time>
      </trkpt>
      <trkpt lat="41.515331000" lon="1.872636000">
        <ele>179.00</ele>
        <time>2012-09-18T18:13:51Z</time>
      </trkpt>
      <trkpt lat="41.515540000" lon="1.872670000">
        <ele>180.80</ele>
        <time>2012-09-18T18:14:00Z</time>
      </trkpt>
      <trkpt lat="41.515659000" lon="1.872542000">
        <ele>182.60</ele>
        <time>2012-09-18T18:14:10Z</time>
      </trkpt>
      <trkpt lat="41.515621000" lon="1.872298000">
        <ele>185.00</ele>
        <time>2012-09-18T18:14:19Z</time>
      </trkpt>
      <trkpt lat="41.515490000" lon="1.872075000">
        <ele>185.80</ele>
        <time>2012-09-18T18:14:28Z</time>
      </trkpt>
      <trkpt lat="41.515402000" lon="1.871861000">
        <ele>185.50</ele>
        <time>2012-09-18T18:14:33Z</time>
      </trkpt>
      <trkpt lat="41.515299000" lon="1.871637000">
        <ele>186.10</ele>
        <time>2012-09-18T18:14:40Z</time>
      </trkpt>
      <trkpt lat="41.515188000" lon="1.871436000">
        <ele>187.00</ele>
        <time>2012-09-18T18:14:47Z</time>
      </trkpt>
      <trkpt lat="41.515054000" lon="1.871224000">
        <ele>188.30</ele>
        <time>2012-09-18T18:14:55Z</time>
      </trkpt>
      <trkpt lat="41.514951000" lon="1.871012000">
        <ele>189.90</ele>
        <time>2012-09-18T18:15:04Z</time>
      </trkpt>
      <trkpt lat="41.514877000" lon="1.870787000">
        <ele>190.50</ele>
        <time>2012-09-18T18:15:13Z</time>
      </trkpt>
      <trkpt lat="41.514822000" lon="1.870532000">
        <ele>190.90</ele>
        <time>2012-09-18T18:15:20Z</time>
      </trkpt>
      <trkpt lat="41.514754000" lon="1.870285000">
        <ele>191.60</ele>
        <time>2012-09-18T18:15:29Z</time>
      </trkpt>
      <trkpt lat="41.514736000" lon="1.870039000">
        <ele>192.40</ele>
        <time>2012-09-18T18:15:37Z</time>
      </trkpt>
      <trkpt lat="41.514793000" lon="1.869798000">
        <ele>191.60</ele>
        <time>2012-09-18T18:15:42Z</time>
      </trkpt>
      <trkpt lat="41.514864000" lon="1.869536000">
        <ele>191.60</ele>
        <time>2012-09-18T18:15:48Z</time>
      </trkpt>
      <trkpt lat="41.514937000" lon="1.869317000">
        <ele>191.80</ele>
        <time>2012-09-18T18:15:55Z</time>
      </trkpt>
      <trkpt lat="41.515027000" lon="1.869070000">
        <ele>192.20</ele>
        <time>2012-09-18T18:16:02Z</time>
      </trkpt>
      <trkpt lat="41.515107000" lon="1.868855000">
        <ele>193.10</ele>
        <time>2012-09-18T18:16:09Z</time>
      </trkpt>
      <trkpt lat="41.515017000" lon="1.868671000">
        <ele>193.90</ele>
        <time>2012-09-18T18:17:34Z</time>
      </trkpt>
      <trkpt lat="41.514973000" lon="1.868401000">
        <ele>193.60</ele>
        <time>2012-09-18T18:17:41Z</time>
      </trkpt>
      <trkpt lat="41.514918000" lon="1.868145000">
        <ele>193.70</ele>
        <time>2012-09-18T18:17:48Z</time>
      </trkpt>
      <trkpt lat="41.514822000" lon="1.867904000">
        <ele>193.90</ele>
        <time>2012-09-18T18:17:53Z</time>
      </trkpt>
      <trkpt lat="41.514714000" lon="1.867683000">
        <ele>193.90</ele>
        <time>2012-09-18T18:18:00Z</time>
      </trkpt>
      <trkpt lat="41.514619000" lon="1.867467000">
        <ele>193.70</ele>
        <time>2012-09-18T18:18:05Z</time>
      </trkpt>
      <trkpt lat="41.514517000" lon="1.867245000">
        <ele>191.20</ele>
        <time>2012-09-18T18:18:09Z</time>
      </trkpt>
      <trkpt lat="41.514394000" lon="1.866955000">
        <ele>188.90</ele>
        <time>2012-09-18T18:18:12Z</time>
      </trkpt>
      <trkpt lat="41.514316000" lon="1.866685000">
        <ele>187.30</ele>
        <time>2012-09-18T18:18:16Z</time>
      </trkpt>
      <trkpt lat="41.514221000" lon="1.866379000">
        <ele>185.30</ele>
        <time>2012-09-18T18:18:19Z</time>
      </trkpt>
      <trkpt lat="41.514070000" lon="1.866140000">
        <ele>184.70</ele>
        <time>2012-09-18T18:18:21Z</time>
      </trkpt>
      <trkpt lat="41.513995000" lon="1.865840000">
        <ele>182.70</ele>
        <time>2012-09-18T18:18:24Z</time>
      </trkpt>
      <trkpt lat="41.514004000" lon="1.865489000">
        <ele>180.80</ele>
        <time>2012-09-18T18:18:28Z</time>
      </trkpt>
      <trkpt lat="41.513967000" lon="1.865164000">
        <ele>180.30</ele>
        <time>2012-09-18T18:18:30Z</time>
      </trkpt>
      <trkpt lat="41.513904000" lon="1.864889000">
        <ele>181.10</ele>
        <time>2012-09-18T18:18:33Z</time>
      </trkpt>
      <trkpt lat="41.513859000" lon="1.864656000">
        <ele>182.50</ele>
        <time>2012-09-18T18:18:37Z</time>
      </trkpt>
      <trkpt lat="41.513800000" lon="1.864379000">
        <ele>183.10</ele>
        <time>2012-09-18T18:18:40Z</time>
      </trkpt>
      <trkpt lat="41.513680000" lon="1.864166000">
        <ele>183.00</ele>
        <time>2012-09-18T18:18:45Z</time>
      </trkpt>
      <trkpt lat="41.513511000" lon="1.863982000">
        <ele>182.00</ele>
        <time>2012-09-18T18:18:49Z</time>
      </trkpt>
      <trkpt lat="41.513382000" lon="1.863713000">
        <ele>181.60</ele>
        <time>2012-09-18T18:18:52Z</time>
      </trkpt>
      <trkpt lat="41.513264000" lon="1.863444000">
        <ele>181.00</ele>
        <time>2012-09-18T18:18:56Z</time>
      </trkpt>
      <trkpt lat="41.513135000" lon="1.863190000">
        <ele>179.90</ele>
        <time>2012-09-18T18:19:01Z</time>
      </trkpt>
      <trkpt lat="41.512985000" lon="1.862980000">
        <ele>180.50</ele>
        <time>2012-09-18T18:19:05Z</time>
      </trkpt>
      <trkpt lat="41.512787000" lon="1.862908000">
        <ele>180.90</ele>
        <time>2012-09-18T18:19:08Z</time>
      </trkpt>
      <trkpt lat="41.512574000" lon="1.862861000">
        <ele>179.80</ele>
        <time>2012-09-18T18:19:13Z</time>
      </trkpt>
      <trkpt lat="41.512409000" lon="1.862740000">
        <ele>178.90</ele>
        <time>2012-09-18T18:19:15Z</time>
      </trkpt>
      <trkpt lat="41.512283000" lon="1.862560000">
        <ele>179.90</ele>
        <time>2012-09-18T18:19:18Z</time>
      </trkpt>
      <trkpt lat="41.512124000" lon="1.862412000">
        <ele>181.00</ele>
        <time>2012-09-18T18:19:22Z</time>
      </trkpt>
      <trkpt lat="41.511920000" lon="1.862318000">
        <ele>184.40</ele>
        <time>2012-09-18T18:19:27Z</time>
      </trkpt>
      <trkpt lat="41.511696000" lon="1.862331000">
        <ele>187.70</ele>
        <time>2012-09-18T18:19:34Z</time>
      </trkpt>
      <trkpt lat="41.511499000" lon="1.862394000">
        <ele>190.00</ele>
        <time>2012-09-18T18:19:39Z</time>
      </trkpt>
      <trkpt lat="41.511333000" lon="1.862508000">
        <ele>192.10</ele>
        <time>2012-09-18T18:19:48Z</time>
      </trkpt>
      <trkpt lat="41.511137000" lon="1.862551000">
        <ele>193.30</ele>
        <time>2012-09-18T18:19:55Z</time>
      </trkpt>
      <trkpt lat="41.510924000" lon="1.862504000">
        <ele>194.10</ele>
        <time>2012-09-18T18:20:04Z</time>
      </trkpt>
      <trkpt lat="41.510730000" lon="1.862387000">
        <ele>194.70</ele>
        <time>2012-09-18T18:20:11Z</time>
      </trkpt>
      <trkpt lat="41.510574000" lon="1.862266000">
        <ele>196.00</ele>
        <time>2012-09-18T18:20:18Z</time>
      </trkpt>
      <trkpt lat="41.510391000" lon="1.862172000">
        <ele>197.90</ele>
        <time>2012-09-18T18:20:25Z</time>
      </trkpt>
      <trkpt lat="41.510190000" lon="1.862171000">
        <ele>199.60</ele>
        <time>2012-09-18T18:20:35Z</time>
      </trkpt>
      <trkpt lat="41.510010000" lon="1.862097000">
        <ele>199.40</ele>
        <time>2012-09-18T18:20:44Z</time>
      </trkpt>
      <trkpt lat="41.509809000" lon="1.862066000">
        <ele>199.60</ele>
        <time>2012-09-18T18:20:53Z</time>
      </trkpt>
      <trkpt lat="41.509622000" lon="1.862065000">
        <ele>199.70</ele>
        <time>2012-09-18T18:21:01Z</time>
      </trkpt>
      <trkpt lat="41.509416000" lon="1.862109000">
        <ele>200.20</ele>
        <time>2012-09-18T18:21:08Z</time>
      </trkpt>
      <trkpt lat="41.509256000" lon="1.862211000">
        <ele>200.00</ele>
        <time>2012-09-18T18:21:15Z</time>
      </trkpt>
      <trkpt lat="41.509048000" lon="1.862283000">
        <ele>200.20</ele>
        <time>2012-09-18T18:21:22Z</time>
      </trkpt>
      <trkpt lat="41.508864000" lon="1.862297000">
        <ele>200.50</ele>
        <time>2012-09-18T18:21:29Z</time>
      </trkpt>
      <trkpt lat="41.508678000" lon="1.862254000">
        <ele>200.60</ele>
        <time>2012-09-18T18:21:36Z</time>
      </trkpt>
      <trkpt lat="41.508473000" lon="1.862184000">
        <ele>199.80</ele>
        <time>2012-09-18T18:21:41Z</time>
      </trkpt>
      <trkpt lat="41.508284000" lon="1.862132000">
        <ele>199.20</ele>
        <time>2012-09-18T18:21:47Z</time>
      </trkpt>
      <trkpt lat="41.508080000" lon="1.862069000">
        <ele>199.60</ele>
        <time>2012-09-18T18:21:52Z</time>
      </trkpt>
      <trkpt lat="41.507898000" lon="1.862061000">
        <ele>199.50</ele>
        <time>2012-09-18T18:21:59Z</time>
      </trkpt>
      <trkpt lat="41.507730000" lon="1.862206000">
        <ele>199.40</ele>
        <time>2012-09-18T18:22:04Z</time>
      </trkpt>
      <trkpt lat="41.507598000" lon="1.862431000">
        <ele>199.40</ele>
        <time>2012-09-18T18:22:11Z</time>
      </trkpt>
      <trkpt lat="41.507454000" lon="1.862638000">
        <ele>200.30</ele>
        <time>2012-09-18T18:22:16Z</time>
      </trkpt>
      <trkpt lat="41.507318000" lon="1.862806000">
        <ele>201.50</ele>
        <time>2012-09-18T18:22:23Z</time>
      </trkpt>
      <trkpt lat="41.507219000" lon="1.863000000">
        <ele>202.40</ele>
        <time>2012-09-18T18:22:28Z</time>
      </trkpt>
      <trkpt lat="41.507267000" lon="1.863262000">
        <ele>203.30</ele>
        <time>2012-09-18T18:22:35Z</time>
      </trkpt>
      <trkpt lat="41.507375000" lon="1.863477000">
        <ele>204.30</ele>
        <time>2012-09-18T18:22:42Z</time>
      </trkpt>
      <trkpt lat="41.507492000" lon="1.863698000">
        <ele>205.80</ele>
        <time>2012-09-18T18:22:49Z</time>
      </trkpt>
      <trkpt lat="41.507612000" lon="1.863920000">
        <ele>206.50</ele>
        <time>2012-09-18T18:22:56Z</time>
      </trkpt>
      <trkpt lat="41.507742000" lon="1.864129000">
        <ele>205.40</ele>
        <time>2012-09-18T18:23:03Z</time>
      </trkpt>
      <trkpt lat="41.507893000" lon="1.864322000">
        <ele>202.80</ele>
        <time>2012-09-18T18:23:08Z</time>
      </trkpt>
      <trkpt lat="41.508037000" lon="1.864510000">
        <ele>199.90</ele>
        <time>2012-09-18T18:23:12Z</time>
      </trkpt>
      <trkpt lat="41.508201000" lon="1.864758000">
        <ele>196.80</ele>
        <time>2012-09-18T18:23:14Z</time>
      </trkpt>
      <trkpt lat="41.508343000" lon="1.865050000">
        <ele>195.60</ele>
        <time>2012-09-18T18:23:17Z</time>
      </trkpt>
      <trkpt lat="41.508432000" lon="1.865345000">
        <ele>196.10</ele>
        <time>2012-09-18T18:23:21Z</time>
      </trkpt>
      <trkpt lat="41.508431000" lon="1.865605000">
        <ele>197.60</ele>
        <time>2012-09-18T18:23:24Z</time>
      </trkpt>
      <trkpt lat="41.508348000" lon="1.865856000">
        <ele>200.90</ele>
        <time>2012-09-18T18:23:29Z</time>
      </trkpt>
      <trkpt lat="41.508279000" lon="1.866086000">
        <ele>202.40</ele>
        <time>2012-09-18T18:23:35Z</time>
      </trkpt>
      <trkpt lat="41.508187000" lon="1.866315000">
        <ele>203.70</ele>
        <time>2012-09-18T18:23:40Z</time>
      </trkpt>
      <trkpt lat="41.508090000" lon="1.866554000">
        <ele>206.20</ele>
        <time>2012-09-18T18:23:47Z</time>
      </trkpt>
      <trkpt lat="41.508095000" lon="1.866793000">
        <ele>208.20</ele>
        <time>2012-09-18T18:23:54Z</time>
      </trkpt>
      <trkpt lat="41.508247000" lon="1.866950000">
        <ele>209.50</ele>
        <time>2012-09-18T18:24:01Z</time>
      </trkpt>
      <trkpt lat="41.508416000" lon="1.867108000">
        <ele>209.80</ele>
        <time>2012-09-18T18:24:09Z</time>
      </trkpt>
      <trkpt lat="41.508562000" lon="1.867276000">
        <ele>210.10</ele>
        <time>2012-09-18T18:24:16Z</time>
      </trkpt>
      <trkpt lat="41.508667000" lon="1.867484000">
        <ele>208.20</ele>
        <time>2012-09-18T18:24:23Z</time>
      </trkpt>
      <trkpt lat="41.508751000" lon="1.867759000">
        <ele>204.30</ele>
        <time>2012-09-18T18:24:27Z</time>
      </trkpt>
      <trkpt lat="41.508785000" lon="1.868025000">
        <ele>201.10</ele>
        <time>2012-09-18T18:24:30Z</time>
      </trkpt>
      <trkpt lat="41.508823000" lon="1.868305000">
        <ele>197.50</ele>
        <time>2012-09-18T18:24:32Z</time>
      </trkpt>
      <trkpt lat="41.508885000" lon="1.868625000">
        <ele>193.90</ele>
        <time>2012-09-18T18:24:35Z</time>
      </trkpt>
      <trkpt lat="41.508939000" lon="1.868917000">
        <ele>190.80</ele>
        <time>2012-09-18T18:24:39Z</time>
      </trkpt>
      <trkpt lat="41.508877000" lon="1.869079000">
        <ele>190.40</ele>
        <time>2012-09-18T18:24:42Z</time>
      </trkpt>
      <trkpt lat="41.508702000" lon="1.868943000">
        <ele>187.80</ele>
        <time>2012-09-18T18:24:48Z</time>
      </trkpt>
      <trkpt lat="41.508491000" lon="1.868823000">
        <ele>185.30</ele>
        <time>2012-09-18T18:24:51Z</time>
      </trkpt>
      <trkpt lat="41.508242000" lon="1.868818000">
        <ele>183.50</ele>
        <time>2012-09-18T18:24:55Z</time>
      </trkpt>
      <trkpt lat="41.508055000" lon="1.868901000">
        <ele>183.50</ele>
        <time>2012-09-18T18:24:58Z</time>
      </trkpt>
      <trkpt lat="41.507835000" lon="1.868936000">
        <ele>184.80</ele>
        <time>2012-09-18T18:25:02Z</time>
      </trkpt>
      <trkpt lat="41.507655000" lon="1.868819000">
        <ele>184.10</ele>
        <time>2012-09-18T18:25:07Z</time>
      </trkpt>
      <trkpt lat="41.507505000" lon="1.868593000">
        <ele>183.10</ele>
        <time>2012-09-18T18:25:10Z</time>
      </trkpt>
      <trkpt lat="41.507395000" lon="1.868340000">
        <ele>182.10</ele>
        <time>2012-09-18T18:25:14Z</time>
      </trkpt>
      <trkpt lat="41.507240000" lon="1.868221000">
        <ele>182.40</ele>
        <time>2012-09-18T18:25:19Z</time>
      </trkpt>
      <trkpt lat="41.507062000" lon="1.868384000">
        <ele>184.50</ele>
        <time>2012-09-18T18:25:24Z</time>
      </trkpt>
      <trkpt lat="41.506956000" lon="1.868595000">
        <ele>186.80</ele>
        <time>2012-09-18T18:25:28Z</time>
      </trkpt>
      <trkpt lat="41.506826000" lon="1.868798000">
        <ele>188.80</ele>
        <time>2012-09-18T18:25:35Z</time>
      </trkpt>
      <trkpt lat="41.506643000" lon="1.868754000">
        <ele>191.10</ele>
        <time>2012-09-18T18:25:40Z</time>
      </trkpt>
      <trkpt lat="41.506569000" lon="1.868523000">
        <ele>192.30</ele>
        <time>2012-09-18T18:25:47Z</time>
      </trkpt>
      <trkpt lat="41.506489000" lon="1.868279000">
        <ele>191.50</ele>
        <time>2012-09-18T18:25:52Z</time>
      </trkpt>
      <trkpt lat="41.506397000" lon="1.868068000">
        <ele>190.60</ele>
        <time>2012-09-18T18:25:57Z</time>
      </trkpt>
      <trkpt lat="41.506287000" lon="1.867841000">
        <ele>189.60</ele>
        <time>2012-09-18T18:26:01Z</time>
      </trkpt>
      <trkpt lat="41.506161000" lon="1.867608000">
        <ele>188.40</ele>
        <time>2012-09-18T18:26:04Z</time>
      </trkpt>
      <trkpt lat="41.506006000" lon="1.867430000">
        <ele>188.40</ele>
        <time>2012-09-18T18:26:08Z</time>
      </trkpt>
      <trkpt lat="41.505799000" lon="1.867327000">
        <ele>188.80</ele>
        <time>2012-09-18T18:26:13Z</time>
      </trkpt>
      <trkpt lat="41.505589000" lon="1.867334000">
        <ele>189.10</ele>
        <time>2012-09-18T18:26:18Z</time>
      </trkpt>
      <trkpt lat="41.505377000" lon="1.867325000">
        <ele>189.80</ele>
        <time>2012-09-18T18:26:23Z</time>
      </trkpt>
      <trkpt lat="41.505171000" lon="1.867290000">
        <ele>190.60</ele>
        <time>2012-09-18T18:26:29Z</time>
      </trkpt>
      <trkpt lat="41.504968000" lon="1.867251000">
        <ele>192.00</ele>
        <time>2012-09-18T18:26:34Z</time>
      </trkpt>
      <trkpt lat="41.504774000" lon="1.867229000">
        <ele>193.70</ele>
        <time>2012-09-18T18:26:41Z</time>
      </trkpt>
      <trkpt lat="41.504597000" lon="1.867168000">
        <ele>194.30</ele>
        <time>2012-09-18T18:26:48Z</time>
      </trkpt>
      <trkpt lat="41.504405000" lon="1.867102000">
        <ele>193.90</ele>
        <time>2012-09-18T18:26:55Z</time>
      </trkpt>
      <trkpt lat="41.504214000" lon="1.867009000">
        <ele>192.70</ele>
        <time>2012-09-18T18:27:00Z</time>
      </trkpt>
      <trkpt lat="41.504012000" lon="1.866898000">
        <ele>191.20</ele>
        <time>2012-09-18T18:27:04Z</time>
      </trkpt>
      <trkpt lat="41.503834000" lon="1.866774000">
        <ele>189.80</ele>
        <time>2012-09-18T18:27:07Z</time>
      </trkpt>
      <trkpt lat="41.503646000" lon="1.866616000">
        <ele>188.80</ele>
        <time>2012-09-18T18:27:09Z</time>
      </trkpt>
      <trkpt lat="41.503469000" lon="1.866444000">
        <ele>188.30</ele>
        <time>2012-09-18T18:27:12Z</time>
      </trkpt>
      <trkpt lat="41.503305000" lon="1.866253000">
        <ele>188.20</ele>
        <time>2012-09-18T18:27:16Z</time>
      </trkpt>
      <trkpt lat="41.503167000" lon="1.866057000">
        <ele>188.10</ele>
        <time>2012-09-18T18:27:19Z</time>
      </trkpt>
      <trkpt lat="41.503018000" lon="1.865816000">
        <ele>189.40</ele>
        <time>2012-09-18T18:27:23Z</time>
      </trkpt>
      <trkpt lat="41.502873000" lon="1.865609000">
        <ele>191.10</ele>
        <time>2012-09-18T18:27:26Z</time>
      </trkpt>
      <trkpt lat="41.502756000" lon="1.865421000">
        <ele>191.80</ele>
        <time>2012-09-18T18:27:30Z</time>
      </trkpt>
      <trkpt lat="41.502644000" lon="1.865219000">
        <ele>192.80</ele>
        <time>2012-09-18T18:27:35Z</time>
      </trkpt>
      <trkpt lat="41.502785000" lon="1.865029000">
        <ele>193.40</ele>
        <time>2012-09-18T18:27:42Z</time>
      </trkpt>
      <trkpt lat="41.502899000" lon="1.864814000">
        <ele>193.40</ele>
        <time>2012-09-18T18:27:47Z</time>
      </trkpt>
      <trkpt lat="41.502936000" lon="1.864528000">
        <ele>192.70</ele>
        <time>2012-09-18T18:27:52Z</time>
      </trkpt>
      <trkpt lat="41.502826000" lon="1.864306000">
        <ele>190.80</ele>
        <time>2012-09-18T18:27:56Z</time>
      </trkpt>
      <trkpt lat="41.502696000" lon="1.864132000">
        <ele>188.70</ele>
        <time>2012-09-18T18:27:59Z</time>
      </trkpt>
      <trkpt lat="41.502512000" lon="1.863994000">
        <ele>185.70</ele>
        <time>2012-09-18T18:28:03Z</time>
      </trkpt>
      <trkpt lat="41.502308000" lon="1.863879000">
        <ele>182.60</ele>
        <time>2012-09-18T18:28:08Z</time>
      </trkpt>
      <trkpt lat="41.502131000" lon="1.863758000">
        <ele>179.80</ele>
        <time>2012-09-18T18:28:13Z</time>
      </trkpt>
      <trkpt lat="41.501930000" lon="1.863623000">
        <ele>177.00</ele>
        <time>2012-09-18T18:28:15Z</time>
      </trkpt>
      <trkpt lat="41.501764000" lon="1.863509000">
        <ele>173.80</ele>
        <time>2012-09-18T18:28:17Z</time>
      </trkpt>
      <trkpt lat="41.501586000" lon="1.863374000">
        <ele>172.50</ele>
        <time>2012-09-18T18:28:20Z</time>
      </trkpt>
      <trkpt lat="41.501419000" lon="1.863224000">
        <ele>172.20</ele>
        <time>2012-09-18T18:28:22Z</time>
      </trkpt>
      <trkpt lat="41.501226000" lon="1.862979000">
        <ele>174.00</ele>
        <time>2012-09-18T18:28:24Z</time>
      </trkpt>
      <trkpt lat="41.501111000" lon="1.862740000">
        <ele>176.50</ele>
        <time>2012-09-18T18:28:27Z</time>
      </trkpt>
      <trkpt lat="41.501024000" lon="1.862511000">
        <ele>179.30</ele>
        <time>2012-09-18T18:28:31Z</time>
      </trkpt>
      <trkpt lat="41.500868000" lon="1.862499000">
        <ele>179.40</ele>
        <time>2012-09-18T18:28:50Z</time>
      </trkpt>
      <trkpt lat="41.500928000" lon="1.862562000">
        <ele>179.20</ele>
        <time>2012-09-18T18:29:30Z</time>
      </trkpt>
      <trkpt lat="41.501075000" lon="1.862715000">
        <ele>178.60</ele>
        <time>2012-09-18T18:29:35Z</time>
      </trkpt>
      <trkpt lat="41.501203000" lon="1.862989000">
        <ele>175.70</ele>
        <time>2012-09-18T18:29:40Z</time>
      </trkpt>
      <trkpt lat="41.501337000" lon="1.863189000">
        <ele>172.60</ele>
        <time>2012-09-18T18:29:44Z</time>
      </trkpt>
      <trkpt lat="41.501506000" lon="1.863381000">
        <ele>172.60</ele>
        <time>2012-09-18T18:29:47Z</time>
      </trkpt>
      <trkpt lat="41.501677000" lon="1.863522000">
        <ele>173.20</ele>
        <time>2012-09-18T18:29:49Z</time>
      </trkpt>
      <trkpt lat="41.501855000" lon="1.863659000">
        <ele>175.60</ele>
        <time>2012-09-18T18:29:54Z</time>
      </trkpt>
      <trkpt lat="41.502050000" lon="1.863775000">
        <ele>178.20</ele>
        <time>2012-09-18T18:30:00Z</time>
      </trkpt>
      <trkpt lat="41.502231000" lon="1.863900000">
        <ele>180.80</ele>
        <time>2012-09-18T18:30:05Z</time>
      </trkpt>
      <trkpt lat="41.502405000" lon="1.864031000">
        <ele>183.70</ele>
        <time>2012-09-18T18:30:12Z</time>
      </trkpt>
      <trkpt lat="41.502556000" lon="1.864149000">
        <ele>186.30</ele>
        <time>2012-09-18T18:30:17Z</time>
      </trkpt>
      <trkpt lat="41.502702000" lon="1.864276000">
        <ele>188.80</ele>
        <time>2012-09-18T18:30:24Z</time>
      </trkpt>
      <trkpt lat="41.502856000" lon="1.864450000">
        <ele>191.30</ele>
        <time>2012-09-18T18:30:31Z</time>
      </trkpt>
      <trkpt lat="41.502903000" lon="1.864686000">
        <ele>193.10</ele>
        <time>2012-09-18T18:30:38Z</time>
      </trkpt>
      <trkpt lat="41.502820000" lon="1.864905000">
        <ele>193.30</ele>
        <time>2012-09-18T18:30:45Z</time>
      </trkpt>
      <trkpt lat="41.502679000" lon="1.865078000">
        <ele>192.90</ele>
        <time>2012-09-18T18:30:52Z</time>
      </trkpt>
      <trkpt lat="41.502556000" lon="1.865185000">
        <ele>192.60</ele>
        <time>2012-09-18T18:30:55Z</time>
      </trkpt>
      <trkpt lat="41.502188000" lon="1.865480000">
        <ele>191.00</ele>
        <time>2012-09-18T18:31:04Z</time>
      </trkpt>
      <trkpt lat="41.502004000" lon="1.865667000">
        <ele>189.10</ele>
        <time>2012-09-18T18:31:07Z</time>
      </trkpt>
      <trkpt lat="41.501639000" lon="1.866035000">
        <ele>187.30</ele>
        <time>2012-09-18T18:31:16Z</time>
      </trkpt>
      <trkpt lat="41.501462000" lon="1.866219000">
        <ele>187.20</ele>
        <time>2012-09-18T18:31:20Z</time>
      </trkpt>
      <trkpt lat="41.501277000" lon="1.866417000">
        <ele>186.40</ele>
        <time>2012-09-18T18:31:23Z</time>
      </trkpt>
      <trkpt lat="41.501133000" lon="1.866560000">
        <ele>185.70</ele>
        <time>2012-09-18T18:31:27Z</time>
      </trkpt>
      <trkpt lat="41.500988000" lon="1.866713000">
        <ele>185.60</ele>
        <time>2012-09-18T18:31:30Z</time>
      </trkpt>
      <trkpt lat="41.500703000" lon="1.867015000">
        <ele>184.00</ele>
        <time>2012-09-18T18:31:35Z</time>
      </trkpt>
      <trkpt lat="41.500561000" lon="1.867162000">
        <ele>183.30</ele>
        <time>2012-09-18T18:31:39Z</time>
      </trkpt>
      <trkpt lat="41.500415000" lon="1.867315000">
        <ele>182.70</ele>
        <time>2012-09-18T18:31:42Z</time>
      </trkpt>
      <trkpt lat="41.500263000" lon="1.867461000">
        <ele>181.80</ele>
        <time>2012-09-18T18:31:44Z</time>
      </trkpt>
      <trkpt lat="41.500115000" lon="1.867613000">
        <ele>181.40</ele>
        <time>2012-09-18T18:31:48Z</time>
      </trkpt>
      <trkpt lat="41.499922000" lon="1.867797000">
        <ele>180.90</ele>
        <time>2012-09-18T18:31:51Z</time>
      </trkpt>
      <trkpt lat="41.499779000" lon="1.867949000">
        <ele>180.30</ele>
        <time>2012-09-18T18:31:54Z</time>
      </trkpt>
      <trkpt lat="41.499626000" lon="1.868099000">
        <ele>179.60</ele>
        <time>2012-09-18T18:31:58Z</time>
      </trkpt>
      <trkpt lat="41.499478000" lon="1.868263000">
        <ele>178.80</ele>
        <time>2012-09-18T18:32:00Z</time>
      </trkpt>
      <trkpt lat="41.499322000" lon="1.868422000">
        <ele>178.20</ele>
        <time>2012-09-18T18:32:03Z</time>
      </trkpt>
      <trkpt lat="41.499166000" lon="1.868579000">
        <ele>178.10</ele>
        <time>2012-09-18T18:32:07Z</time>
      </trkpt>
      <trkpt lat="41.499007000" lon="1.868714000">
        <ele>177.90</ele>
        <time>2012-09-18T18:32:10Z</time>
      </trkpt>
      <trkpt lat="41.498820000" lon="1.868789000">
        <ele>178.40</ele>
        <time>2012-09-18T18:32:14Z</time>
      </trkpt>
      <trkpt lat="41.498649000" lon="1.868900000">
        <ele>176.70</ele>
        <time>2012-09-18T18:32:17Z</time>
      </trkpt>
      <trkpt lat="41.498452000" lon="1.868980000">
        <ele>175.60</ele>
        <time>2012-09-18T18:32:22Z</time>
      </trkpt>
      <trkpt lat="41.498225000" lon="1.869071000">
        <ele>175.10</ele>
        <time>2012-09-18T18:32:26Z</time>
      </trkpt>
      <trkpt lat="41.498049000" lon="1.869149000">
        <ele>174.00</ele>
        <time>2012-09-18T18:32:29Z</time>
      </trkpt>
      <trkpt lat="41.497863000" lon="1.869228000">
        <ele>173.40</ele>
        <time>2012-09-18T18:32:31Z</time>
      </trkpt>
      <trkpt lat="41.497688000" lon="1.869324000">
        <ele>173.20</ele>
        <time>2012-09-18T18:32:35Z</time>
      </trkpt>
      <trkpt lat="41.497541000" lon="1.869514000">
        <ele>172.50</ele>
        <time>2012-09-18T18:32:38Z</time>
      </trkpt>
      <trkpt lat="41.497451000" lon="1.869744000">
        <ele>171.80</ele>
        <time>2012-09-18T18:32:43Z</time>
      </trkpt>
      <trkpt lat="41.497285000" lon="1.869791000">
        <ele>171.60</ele>
        <time>2012-09-18T18:32:47Z</time>
      </trkpt>
      <trkpt lat="41.497168000" lon="1.869959000">
        <ele>170.50</ele>
        <time>2012-09-18T18:32:50Z</time>
      </trkpt>
      <trkpt lat="41.497081000" lon="1.870222000">
        <ele>169.80</ele>
        <time>2012-09-18T18:32:54Z</time>
      </trkpt>
      <trkpt lat="41.496961000" lon="1.870501000">
        <ele>169.20</ele>
        <time>2012-09-18T18:32:59Z</time>
      </trkpt>
      <trkpt lat="41.496796000" lon="1.870730000">
        <ele>168.70</ele>
        <time>2012-09-18T18:33:02Z</time>
      </trkpt>
      <trkpt lat="41.496626000" lon="1.870936000">
        <ele>168.80</ele>
        <time>2012-09-18T18:33:06Z</time>
      </trkpt>
      <trkpt lat="41.496454000" lon="1.871119000">
        <ele>168.30</ele>
        <time>2012-09-18T18:33:11Z</time>
      </trkpt>
      <trkpt lat="41.496261000" lon="1.871257000">
        <ele>168.10</ele>
        <time>2012-09-18T18:33:15Z</time>
      </trkpt>
      <trkpt lat="41.496079000" lon="1.871385000">
        <ele>169.00</ele>
        <time>2012-09-18T18:33:18Z</time>
      </trkpt>
      <trkpt lat="41.495889000" lon="1.871500000">
        <ele>170.20</ele>
        <time>2012-09-18T18:33:23Z</time>
      </trkpt>
      <trkpt lat="41.495708000" lon="1.871617000">
        <ele>170.90</ele>
        <time>2012-09-18T18:33:29Z</time>
      </trkpt>
      <trkpt lat="41.495532000" lon="1.871737000">
        <ele>171.20</ele>
        <time>2012-09-18T18:33:34Z</time>
      </trkpt>
      <trkpt lat="41.495368000" lon="1.871834000">
        <ele>170.90</ele>
        <time>2012-09-18T18:33:37Z</time>
      </trkpt>
      <trkpt lat="41.495205000" lon="1.871944000">
        <ele>171.20</ele>
        <time>2012-09-18T18:33:41Z</time>
      </trkpt>
      <trkpt lat="41.495041000" lon="1.872083000">
        <ele>170.80</ele>
        <time>2012-09-18T18:33:46Z</time>
      </trkpt>
      <trkpt lat="41.494901000" lon="1.872253000">
        <ele>170.50</ele>
        <time>2012-09-18T18:33:53Z</time>
      </trkpt>
      <trkpt lat="41.494765000" lon="1.872461000">
        <ele>169.90</ele>
        <time>2012-09-18T18:33:58Z</time>
      </trkpt>
      <trkpt lat="41.494657000" lon="1.872667000">
        <ele>169.10</ele>
        <time>2012-09-18T18:34:02Z</time>
      </trkpt>
      <trkpt lat="41.494541000" lon="1.872914000">
        <ele>169.20</ele>
        <time>2012-09-18T18:34:07Z</time>
      </trkpt>
      <trkpt lat="41.494598000" lon="1.872919000">
        <ele>169.50</ele>
        <time>2012-09-18T18:35:08Z</time>
      </trkpt>
      <trkpt lat="41.494620000" lon="1.872690000">
        <ele>170.20</ele>
        <time>2012-09-18T18:35:20Z</time>
      </trkpt>
      <trkpt lat="41.494472000" lon="1.872621000">
        <ele>171.30</ele>
        <time>2012-09-18T18:35:30Z</time>
      </trkpt>
      <trkpt lat="41.494290000" lon="1.872433000">
        <ele>170.50</ele>
        <time>2012-09-18T18:35:43Z</time>
      </trkpt>
      <trkpt lat="41.494136000" lon="1.872270000">
        <ele>168.60</ele>
        <time>2012-09-18T18:35:46Z</time>
      </trkpt>
      <trkpt lat="41.494011000" lon="1.872108000">
        <ele>166.80</ele>
        <time>2012-09-18T18:35:50Z</time>
      </trkpt>
      <trkpt lat="41.493843000" lon="1.871901000">
        <ele>165.20</ele>
        <time>2012-09-18T18:35:53Z</time>
      </trkpt>
      <trkpt lat="41.493702000" lon="1.871732000">
        <ele>164.50</ele>
        <time>2012-09-18T18:35:58Z</time>
      </trkpt>
      <trkpt lat="41.493569000" lon="1.871527000">
        <ele>163.70</ele>
        <time>2012-09-18T18:36:02Z</time>
      </trkpt>
      <trkpt lat="41.493484000" lon="1.871361000">
        <ele>163.80</ele>
        <time>2012-09-18T18:36:14Z</time>
      </trkpt>
      <trkpt lat="41.493579000" lon="1.871068000">
        <ele>161.40</ele>
        <time>2012-09-18T18:36:21Z</time>
      </trkpt>
      <trkpt lat="41.493696000" lon="1.870822000">
        <ele>156.80</ele>
        <time>2012-09-18T18:36:23Z</time>
      </trkpt>
      <trkpt lat="41.493857000" lon="1.870552000">
        <ele>153.00</ele>
        <time>2012-09-18T18:36:26Z</time>
      </trkpt>
      <trkpt lat="41.494022000" lon="1.870337000">
        <ele>150.60</ele>
        <time>2012-09-18T18:36:30Z</time>
      </trkpt>
      <trkpt lat="41.494182000" lon="1.870138000">
        <ele>147.90</ele>
        <time>2012-09-18T18:36:33Z</time>
      </trkpt>
      <trkpt lat="41.494356000" lon="1.869928000">
        <ele>145.30</ele>
        <time>2012-09-18T18:36:35Z</time>
      </trkpt>
      <trkpt lat="41.494512000" lon="1.869734000">
        <ele>142.70</ele>
        <time>2012-09-18T18:36:38Z</time>
      </trkpt>
      <trkpt lat="41.494623000" lon="1.869499000">
        <ele>140.30</ele>
        <time>2012-09-18T18:36:42Z</time>
      </trkpt>
      <trkpt lat="41.494700000" lon="1.869250000">
        <ele>139.10</ele>
        <time>2012-09-18T18:36:45Z</time>
      </trkpt>
      <trkpt lat="41.494756000" lon="1.869014000">
        <ele>137.60</ele>
        <time>2012-09-18T18:36:52Z</time>
      </trkpt>
      <trkpt lat="41.494764000" lon="1.868838000">
        <ele>137.20</ele>
        <time>2012-09-18T18:37:20Z</time>
      </trkpt>
      <trkpt lat="41.494917000" lon="1.868719000">
        <ele>137.20</ele>
        <time>2012-09-18T18:37:31Z</time>
      </trkpt>
      <trkpt lat="41.495081000" lon="1.868587000">
        <ele>136.10</ele>
        <time>2012-09-18T18:37:38Z</time>
      </trkpt>
      <trkpt lat="41.495267000" lon="1.868439000">
        <ele>135.20</ele>
        <time>2012-09-18T18:37:43Z</time>
      </trkpt>
      <trkpt lat="41.495388000" lon="1.868244000">
        <ele>135.10</ele>
        <time>2012-09-18T18:37:46Z</time>
      </trkpt>
      <trkpt lat="41.495446000" lon="1.867986000">
        <ele>135.10</ele>
        <time>2012-09-18T18:37:52Z</time>
      </trkpt>
      <trkpt lat="41.495485000" lon="1.867716000">
        <ele>135.50</ele>
        <time>2012-09-18T18:37:57Z</time>
      </trkpt>
      <trkpt lat="41.495590000" lon="1.867449000">
        <ele>136.10</ele>
        <time>2012-09-18T18:38:04Z</time>
      </trkpt>
      <trkpt lat="41.495699000" lon="1.867212000">
        <ele>136.70</ele>
        <time>2012-09-18T18:38:11Z</time>
      </trkpt>
      <trkpt lat="41.495776000" lon="1.866955000">
        <ele>137.00</ele>
        <time>2012-09-18T18:38:19Z</time>
      </trkpt>
      <trkpt lat="41.495830000" lon="1.866705000">
        <ele>137.60</ele>
        <time>2012-09-18T18:38:26Z</time>
      </trkpt>
      <trkpt lat="41.495973000" lon="1.866531000">
        <ele>138.40</ele>
        <time>2012-09-18T18:38:35Z</time>
      </trkpt>
      <trkpt lat="41.496149000" lon="1.866439000">
        <ele>138.60</ele>
        <time>2012-09-18T18:38:42Z</time>
      </trkpt>
      <trkpt lat="41.496330000" lon="1.866339000">
        <ele>138.60</ele>
        <time>2012-09-18T18:38:49Z</time>
      </trkpt>
      <trkpt lat="41.496512000" lon="1.866279000">
        <ele>138.60</ele>
        <time>2012-09-18T18:38:54Z</time>
      </trkpt>
      <trkpt lat="41.496702000" lon="1.866265000">
        <ele>140.80</ele>
        <time>2012-09-18T18:39:01Z</time>
      </trkpt>
      <trkpt lat="41.496870000" lon="1.866126000">
        <ele>140.40</ele>
        <time>2012-09-18T18:39:08Z</time>
      </trkpt>
      <trkpt lat="41.496890000" lon="1.865856000">
        <ele>140.40</ele>
        <time>2012-09-18T18:39:15Z</time>
      </trkpt>
      <trkpt lat="41.496892000" lon="1.865609000">
        <ele>140.70</ele>
        <time>2012-09-18T18:39:20Z</time>
      </trkpt>
      <trkpt lat="41.496875000" lon="1.865353000">
        <ele>141.40</ele>
        <time>2012-09-18T18:39:27Z</time>
      </trkpt>
      <trkpt lat="41.496954000" lon="1.865097000">
        <ele>142.20</ele>
        <time>2012-09-18T18:39:34Z</time>
      </trkpt>
      <trkpt lat="41.497091000" lon="1.864937000">
        <ele>142.60</ele>
        <time>2012-09-18T18:39:41Z</time>
      </trkpt>
      <trkpt lat="41.497185000" lon="1.864931000">
        <ele>142.50</ele>
        <time>2012-09-18T18:39:57Z</time>
      </trkpt>
      <trkpt lat="41.497145000" lon="1.864691000">
        <ele>142.50</ele>
        <time>2012-09-18T18:40:06Z</time>
      </trkpt>
      <trkpt lat="41.497147000" lon="1.864447000">
        <ele>143.10</ele>
        <time>2012-09-18T18:40:11Z</time>
      </trkpt>
      <trkpt lat="41.497194000" lon="1.864197000">
        <ele>143.90</ele>
        <time>2012-09-18T18:40:18Z</time>
      </trkpt>
      <trkpt lat="41.497282000" lon="1.863947000">
        <ele>144.80</ele>
        <time>2012-09-18T18:40:23Z</time>
      </trkpt>
      <trkpt lat="41.497359000" lon="1.863698000">
        <ele>145.20</ele>
        <time>2012-09-18T18:40:30Z</time>
      </trkpt>
      <trkpt lat="41.497431000" lon="1.863448000">
        <ele>145.80</ele>
        <time>2012-09-18T18:40:35Z</time>
      </trkpt>
      <trkpt lat="41.497498000" lon="1.863217000">
        <ele>146.50</ele>
        <time>2012-09-18T18:40:42Z</time>
      </trkpt>
      <trkpt lat="41.497568000" lon="1.862980000">
        <ele>146.90</ele>
        <time>2012-09-18T18:40:48Z</time>
      </trkpt>
      <trkpt lat="41.497566000" lon="1.862702000">
        <ele>147.80</ele>
        <time>2012-09-18T18:40:54Z</time>
      </trkpt>
      <trkpt lat="41.497594000" lon="1.862457000">
        <ele>148.90</ele>
        <time>2012-09-18T18:41:00Z</time>
      </trkpt>
      <trkpt lat="41.497617000" lon="1.862197000">
        <ele>149.40</ele>
        <time>2012-09-18T18:41:07Z</time>
      </trkpt>
      <trkpt lat="41.497633000" lon="1.861954000">
        <ele>150.20</ele>
        <time>2012-09-18T18:41:12Z</time>
      </trkpt>
      <trkpt lat="41.497639000" lon="1.861709000">
        <ele>151.00</ele>
        <time>2012-09-18T18:41:19Z</time>
      </trkpt>
      <trkpt lat="41.497724000" lon="1.861481000">
        <ele>152.20</ele>
        <time>2012-09-18T18:41:24Z</time>
      </trkpt>
      <trkpt lat="41.497819000" lon="1.861271000">
        <ele>153.40</ele>
        <time>2012-09-18T18:41:31Z</time>
      </trkpt>
      <trkpt lat="41.497967000" lon="1.861094000">
        <ele>154.80</ele>
        <time>2012-09-18T18:41:38Z</time>
      </trkpt>
      <trkpt lat="41.498133000" lon="1.860945000">
        <ele>155.40</ele>
        <time>2012-09-18T18:41:45Z</time>
      </trkpt>
      <trkpt lat="41.498282000" lon="1.860799000">
        <ele>156.20</ele>
        <time>2012-09-18T18:41:50Z</time>
      </trkpt>
      <trkpt lat="41.498386000" lon="1.860566000">
        <ele>156.50</ele>
        <time>2012-09-18T18:41:57Z</time>
      </trkpt>
      <trkpt lat="41.498444000" lon="1.860324000">
        <ele>157.10</ele>
        <time>2012-09-18T18:42:04Z</time>
      </trkpt>
      <trkpt lat="41.498543000" lon="1.860109000">
        <ele>157.30</ele>
        <time>2012-09-18T18:42:09Z</time>
      </trkpt>
      <trkpt lat="41.498685000" lon="1.859945000">
        <ele>158.80</ele>
        <time>2012-09-18T18:42:16Z</time>
      </trkpt>
      <trkpt lat="41.498850000" lon="1.859772000">
        <ele>159.00</ele>
        <time>2012-09-18T18:42:23Z</time>
      </trkpt>
      <trkpt lat="41.498874000" lon="1.859518000">
        <ele>159.30</ele>
        <time>2012-09-18T18:42:29Z</time>
      </trkpt>
      <trkpt lat="41.498930000" lon="1.859267000">
        <ele>160.00</ele>
        <time>2012-09-18T18:42:34Z</time>
      </trkpt>
      <trkpt lat="41.499088000" lon="1.859162000">
        <ele>161.60</ele>
        <time>2012-09-18T18:42:41Z</time>
      </trkpt>
      <trkpt lat="41.499270000" lon="1.859104000">
        <ele>162.40</ele>
        <time>2012-09-18T18:42:48Z</time>
      </trkpt>
      <trkpt lat="41.499461000" lon="1.859032000">
        <ele>163.40</ele>
        <time>2012-09-18T18:42:55Z</time>
      </trkpt>
      <trkpt lat="41.499621000" lon="1.858860000">
        <ele>164.10</ele>
        <time>2012-09-18T18:43:02Z</time>
      </trkpt>
      <trkpt lat="41.499697000" lon="1.858619000">
        <ele>164.90</ele>
        <time>2012-09-18T18:43:10Z</time>
      </trkpt>
      <trkpt lat="41.499841000" lon="1.858431000">
        <ele>165.60</ele>
        <time>2012-09-18T18:43:17Z</time>
      </trkpt>
      <trkpt lat="41.499970000" lon="1.858215000">
        <ele>167.00</ele>
        <time>2012-09-18T18:43:26Z</time>
      </trkpt>
      <trkpt lat="41.500102000" lon="1.858041000">
        <ele>167.90</ele>
        <time>2012-09-18T18:43:33Z</time>
      </trkpt>
      <trkpt lat="41.500228000" lon="1.857842000">
        <ele>169.20</ele>
        <time>2012-09-18T18:43:40Z</time>
      </trkpt>
      <trkpt lat="41.500388000" lon="1.857705000">
        <ele>170.20</ele>
        <time>2012-09-18T18:43:47Z</time>
      </trkpt>
      <trkpt lat="41.500554000" lon="1.857541000">
        <ele>171.20</ele>
        <time>2012-09-18T18:43:57Z</time>
      </trkpt>
      <trkpt lat="41.500713000" lon="1.857306000">
        <ele>172.50</ele>
        <time>2012-09-18T18:44:04Z</time>
      </trkpt>
      <trkpt lat="41.500799000" lon="1.857064000">
        <ele>173.40</ele>
        <time>2012-09-18T18:44:11Z</time>
      </trkpt>
      <trkpt lat="41.500926000" lon="1.856873000">
        <ele>175.40</ele>
        <time>2012-09-18T18:44:20Z</time>
      </trkpt>
      <trkpt lat="41.501076000" lon="1.856763000">
        <ele>177.30</ele>
        <time>2012-09-18T18:44:29Z</time>
      </trkpt>
      <trkpt lat="41.501262000" lon="1.856713000">
        <ele>179.90</ele>
        <time>2012-09-18T18:44:37Z</time>
      </trkpt>
      <trkpt lat="41.501476000" lon="1.856673000">
        <ele>182.00</ele>
        <time>2012-09-18T18:44:46Z</time>
      </trkpt>
      <trkpt lat="41.501661000" lon="1.856598000">
        <ele>183.10</ele>
        <time>2012-09-18T18:44:55Z</time>
      </trkpt>
      <trkpt lat="41.501822000" lon="1.856486000">
        <ele>184.00</ele>
        <time>2012-09-18T18:45:04Z</time>
      </trkpt>
      <trkpt lat="41.501996000" lon="1.856328000">
        <ele>185.10</ele>
        <time>2012-09-18T18:45:12Z</time>
      </trkpt>
      <trkpt lat="41.502156000" lon="1.856175000">
        <ele>186.60</ele>
        <time>2012-09-18T18:45:19Z</time>
      </trkpt>
      <trkpt lat="41.502346000" lon="1.856058000">
        <ele>188.90</ele>
        <time>2012-09-18T18:45:28Z</time>
      </trkpt>
      <trkpt lat="41.502554000" lon="1.856020000">
        <ele>190.90</ele>
        <time>2012-09-18T18:45:37Z</time>
      </trkpt>
      <trkpt lat="41.502747000" lon="1.856011000">
        <ele>193.00</ele>
        <time>2012-09-18T18:45:45Z</time>
      </trkpt>
      <trkpt lat="41.502945000" lon="1.855933000">
        <ele>195.00</ele>
        <time>2012-09-18T18:45:52Z</time>
      </trkpt>
      <trkpt lat="41.503139000" lon="1.855867000">
        <ele>197.20</ele>
        <time>2012-09-18T18:46:05Z</time>
      </trkpt>
      <trkpt lat="41.503339000" lon="1.855878000">
        <ele>202.20</ele>
        <time>2012-09-18T18:46:27Z</time>
      </trkpt>
      <trkpt lat="41.503502000" lon="1.855769000">
        <ele>207.10</ele>
        <time>2012-09-18T18:47:11Z</time>
      </trkpt>
      <trkpt lat="41.503626000" lon="1.855782000">
        <ele>207.70</ele>
        <time>2012-09-18T18:50:00Z</time>
      </trkpt>
      <trkpt lat="41.503598000" lon="1.855549000">
        <ele>207.50</ele>
        <time>2012-09-18T18:50:08Z</time>
      </trkpt>
      <trkpt lat="41.503699000" lon="1.855374000">
        <ele>208.40</ele>
        <time>2012-09-18T18:50:19Z</time>
      </trkpt>
      <trkpt lat="41.503860000" lon="1.855251000">
        <ele>210.90</ele>
        <time>2012-09-18T18:50:28Z</time>
      </trkpt>
      <trkpt lat="41.504046000" lon="1.855210000">
        <ele>214.20</ele>
        <time>2012-09-18T18:50:38Z</time>
      </trkpt>
      <trkpt lat="41.504231000" lon="1.855189000">
        <ele>218.00</ele>
        <time>2012-09-18T18:50:47Z</time>
      </trkpt>
      <trkpt lat="41.504421000" lon="1.855219000">
        <ele>221.20</ele>
        <time>2012-09-18T18:50:57Z</time>
      </trkpt>
      <trkpt lat="41.504605000" lon="1.855252000">
        <ele>223.80</ele>
        <time>2012-09-18T18:51:08Z</time>
      </trkpt>
      <trkpt lat="41.504790000" lon="1.855238000">
        <ele>225.60</ele>
        <time>2012-09-18T18:51:18Z</time>
      </trkpt>
      <trkpt lat="41.504965000" lon="1.855177000">
        <ele>227.70</ele>
        <time>2012-09-18T18:51:30Z</time>
      </trkpt>
      <trkpt lat="41.505008000" lon="1.854932000">
        <ele>228.90</ele>
        <time>2012-09-18T18:51:42Z</time>
      </trkpt>
      <trkpt lat="41.505012000" lon="1.854693000">
        <ele>229.90</ele>
        <time>2012-09-18T18:51:58Z</time>
      </trkpt>
      <trkpt lat="41.505030000" lon="1.854465000">
        <ele>230.30</ele>
        <time>2012-09-18T18:52:47Z</time>
      </trkpt>
      <trkpt lat="41.505040000" lon="1.854209000">
        <ele>230.40</ele>
        <time>2012-09-18T18:52:57Z</time>
      </trkpt>
      <trkpt lat="41.505034000" lon="1.853956000">
        <ele>230.50</ele>
        <time>2012-09-18T18:53:04Z</time>
      </trkpt>
      <trkpt lat="41.505037000" lon="1.853716000">
        <ele>230.70</ele>
        <time>2012-09-18T18:53:11Z</time>
      </trkpt>
      <trkpt lat="41.505039000" lon="1.853475000">
        <ele>231.10</ele>
        <time>2012-09-18T18:53:18Z</time>
      </trkpt>
      <trkpt lat="41.505053000" lon="1.853234000">
        <ele>231.80</ele>
        <time>2012-09-18T18:53:25Z</time>
      </trkpt>
      <trkpt lat="41.505062000" lon="1.852973000">
        <ele>232.50</ele>
        <time>2012-09-18T18:53:32Z</time>
      </trkpt>
      <trkpt lat="41.505092000" lon="1.852719000">
        <ele>232.30</ele>
        <time>2012-09-18T18:53:39Z</time>
      </trkpt>
      <trkpt lat="41.505078000" lon="1.852455000">
        <ele>232.60</ele>
        <time>2012-09-18T18:53:46Z</time>
      </trkpt>
      <trkpt lat="41.505065000" lon="1.852192000">
        <ele>234.00</ele>
        <time>2012-09-18T18:53:53Z</time>
      </trkpt>
      <trkpt lat="41.505114000" lon="1.851945000">
        <ele>236.80</ele>
        <time>2012-09-18T18:54:00Z</time>
      </trkpt>
      <trkpt lat="41.505183000" lon="1.851682000">
        <ele>241.40</ele>
        <time>2012-09-18T18:54:09Z</time>
      </trkpt>
      <trkpt lat="41.505093000" lon="1.851508000">
        <ele>244.80</ele>
        <time>2012-09-18T18:54:21Z</time>
      </trkpt>
      <trkpt lat="41.505235000" lon="1.851445000">
        <ele>247.00</ele>
        <time>2012-09-18T18:54:35Z</time>
      </trkpt>
      <trkpt lat="41.505390000" lon="1.851296000">
        <ele>249.00</ele>
        <time>2012-09-18T18:54:47Z</time>
      </trkpt>
      <trkpt lat="41.505558000" lon="1.851164000">
        <ele>251.70</ele>
        <time>2012-09-18T18:54:59Z</time>
      </trkpt>
      <trkpt lat="41.505750000" lon="1.851123000">
        <ele>252.40</ele>
        <time>2012-09-18T18:55:08Z</time>
      </trkpt>
      <trkpt lat="41.505932000" lon="1.851181000">
        <ele>254.10</ele>
        <time>2012-09-18T18:55:17Z</time>
      </trkpt>
      <trkpt lat="41.506095000" lon="1.851316000">
        <ele>256.00</ele>
        <time>2012-09-18T18:55:29Z</time>
      </trkpt>
      <trkpt lat="41.506263000" lon="1.851459000">
        <ele>254.10</ele>
        <time>2012-09-18T18:55:39Z</time>
      </trkpt>
      <trkpt lat="41.506420000" lon="1.851499000">
        <ele>253.30</ele>
        <time>2012-09-18T18:55:48Z</time>
      </trkpt>
      <trkpt lat="41.506536000" lon="1.851680000">
        <ele>252.40</ele>
        <time>2012-09-18T18:56:00Z</time>
      </trkpt>
      <trkpt lat="41.506487000" lon="1.851585000">
        <ele>252.70</ele>
        <time>2012-09-18T18:56:14Z</time>
      </trkpt>
      <trkpt lat="41.506495000" lon="1.851541000">
        <ele>252.90</ele>
        <time>2012-09-18T18:56:28Z</time>
      </trkpt>
      <trkpt lat="41.506609000" lon="1.851723000">
        <ele>253.60</ele>
        <time>2012-09-18T18:56:35Z</time>
      </trkpt>
      <trkpt lat="41.506654000" lon="1.851990000">
        <ele>254.80</ele>
        <time>2012-09-18T18:56:42Z</time>
      </trkpt>
      <trkpt lat="41.506745000" lon="1.852258000">
        <ele>255.40</ele>
        <time>2012-09-18T18:56:49Z</time>
      </trkpt>
      <trkpt lat="41.506823000" lon="1.852520000">
        <ele>256.10</ele>
        <time>2012-09-18T18:56:54Z</time>
      </trkpt>
      <trkpt lat="41.506862000" lon="1.852785000">
        <ele>256.70</ele>
        <time>2012-09-18T18:57:01Z</time>
      </trkpt>
      <trkpt lat="41.506886000" lon="1.853030000">
        <ele>256.10</ele>
        <time>2012-09-18T18:57:06Z</time>
      </trkpt>
      <trkpt lat="41.506918000" lon="1.853323000">
        <ele>254.70</ele>
        <time>2012-09-18T18:57:12Z</time>
      </trkpt>
      <trkpt lat="41.506980000" lon="1.853574000">
        <ele>255.50</ele>
        <time>2012-09-18T18:57:17Z</time>
      </trkpt>
      <trkpt lat="41.507054000" lon="1.853837000">
        <ele>257.00</ele>
        <time>2012-09-18T18:57:24Z</time>
      </trkpt>
      <trkpt lat="41.507189000" lon="1.854040000">
        <ele>258.30</ele>
        <time>2012-09-18T18:57:33Z</time>
      </trkpt>
      <trkpt lat="41.507345000" lon="1.854202000">
        <ele>254.30</ele>
        <time>2012-09-18T18:57:38Z</time>
      </trkpt>
      <trkpt lat="41.507522000" lon="1.854233000">
        <ele>249.60</ele>
        <time>2012-09-18T18:57:43Z</time>
      </trkpt>
      <trkpt lat="41.507707000" lon="1.854250000">
        <ele>245.80</ele>
        <time>2012-09-18T18:57:48Z</time>
      </trkpt>
      <trkpt lat="41.507927000" lon="1.854302000">
        <ele>242.30</ele>
        <time>2012-09-18T18:57:50Z</time>
      </trkpt>
      <trkpt lat="41.508146000" lon="1.854387000">
        <ele>241.90</ele>
        <time>2012-09-18T18:57:54Z</time>
      </trkpt>
      <trkpt lat="41.508338000" lon="1.854522000">
        <ele>241.80</ele>
        <time>2012-09-18T18:57:57Z</time>
      </trkpt>
      <trkpt lat="41.508479000" lon="1.854698000">
        <ele>241.70</ele>
        <time>2012-09-18T18:57:59Z</time>
      </trkpt>
      <trkpt lat="41.508627000" lon="1.854904000">
        <ele>242.10</ele>
        <time>2012-09-18T18:58:04Z</time>
      </trkpt>
      <trkpt lat="41.508601000" lon="1.855170000">
        <ele>242.20</ele>
        <time>2012-09-18T18:58:09Z</time>
      </trkpt>
      <trkpt lat="41.508557000" lon="1.855399000">
        <ele>242.50</ele>
        <time>2012-09-18T18:58:13Z</time>
      </trkpt>
      <trkpt lat="41.508572000" lon="1.855658000">
        <ele>241.70</ele>
        <time>2012-09-18T18:58:20Z</time>
      </trkpt>
      <trkpt lat="41.508627000" lon="1.855954000">
        <ele>240.70</ele>
        <time>2012-09-18T18:58:25Z</time>
      </trkpt>
      <trkpt lat="41.508676000" lon="1.856228000">
        <ele>240.40</ele>
        <time>2012-09-18T18:58:28Z</time>
      </trkpt>
      <trkpt lat="41.508646000" lon="1.856519000">
        <ele>239.80</ele>
        <time>2012-09-18T18:58:32Z</time>
      </trkpt>
      <trkpt lat="41.508565000" lon="1.856805000">
        <ele>238.80</ele>
        <time>2012-09-18T18:58:37Z</time>
      </trkpt>
      <trkpt lat="41.508513000" lon="1.857038000">
        <ele>237.30</ele>
        <time>2012-09-18T18:58:39Z</time>
      </trkpt>
      <trkpt lat="41.508432000" lon="1.857292000">
        <ele>235.70</ele>
        <time>2012-09-18T18:58:42Z</time>
      </trkpt>
      <trkpt lat="41.508342000" lon="1.857580000">
        <ele>232.50</ele>
        <time>2012-09-18T18:58:46Z</time>
      </trkpt>
      <trkpt lat="41.508262000" lon="1.857928000">
        <ele>229.20</ele>
        <time>2012-09-18T18:58:49Z</time>
      </trkpt>
      <trkpt lat="41.508222000" lon="1.858168000">
        <ele>228.00</ele>
        <time>2012-09-18T18:58:51Z</time>
      </trkpt>
      <trkpt lat="41.508161000" lon="1.858521000">
        <ele>227.60</ele>
        <time>2012-09-18T18:58:53Z</time>
      </trkpt>
      <trkpt lat="41.508106000" lon="1.858843000">
        <ele>227.40</ele>
        <time>2012-09-18T18:58:56Z</time>
      </trkpt>
      <trkpt lat="41.508074000" lon="1.859131000">
        <ele>227.80</ele>
        <time>2012-09-18T18:59:00Z</time>
      </trkpt>
      <trkpt lat="41.508090000" lon="1.859405000">
        <ele>229.20</ele>
        <time>2012-09-18T18:59:03Z</time>
      </trkpt>
      <trkpt lat="41.508172000" lon="1.859657000">
        <ele>227.70</ele>
        <time>2012-09-18T18:59:10Z</time>
      </trkpt>
      <trkpt lat="41.508260000" lon="1.859931000">
        <ele>224.80</ele>
        <time>2012-09-18T18:59:14Z</time>
      </trkpt>
      <trkpt lat="41.508380000" lon="1.860151000">
        <ele>222.40</ele>
        <time>2012-09-18T18:59:19Z</time>
      </trkpt>
      <trkpt lat="41.508502000" lon="1.860393000">
        <ele>220.60</ele>
        <time>2012-09-18T18:59:22Z</time>
      </trkpt>
      <trkpt lat="41.508618000" lon="1.860642000">
        <ele>218.00</ele>
        <time>2012-09-18T18:59:26Z</time>
      </trkpt>
      <trkpt lat="41.508747000" lon="1.860913000">
        <ele>215.50</ele>
        <time>2012-09-18T18:59:31Z</time>
      </trkpt>
      <trkpt lat="41.508845000" lon="1.861126000">
        <ele>214.00</ele>
        <time>2012-09-18T18:59:33Z</time>
      </trkpt>
      <trkpt lat="41.508945000" lon="1.861340000">
        <ele>211.40</ele>
        <time>2012-09-18T18:59:36Z</time>
      </trkpt>
      <trkpt lat="41.509055000" lon="1.861580000">
        <ele>208.90</ele>
        <time>2012-09-18T18:59:40Z</time>
      </trkpt>
      <trkpt lat="41.509148000" lon="1.861826000">
        <ele>206.30</ele>
        <time>2012-09-18T18:59:43Z</time>
      </trkpt>
      <trkpt lat="41.509289000" lon="1.862012000">
        <ele>205.40</ele>
        <time>2012-09-18T18:59:45Z</time>
      </trkpt>
      <trkpt lat="41.509471000" lon="1.862086000">
        <ele>204.40</ele>
        <time>2012-09-18T18:59:48Z</time>
      </trkpt>
      <trkpt lat="41.509662000" lon="1.862096000">
        <ele>204.10</ele>
        <time>2012-09-18T18:59:52Z</time>
      </trkpt>
      <trkpt lat="41.509846000" lon="1.862107000">
        <ele>204.10</ele>
        <time>2012-09-18T18:59:54Z</time>
      </trkpt>
      <trkpt lat="41.510052000" lon="1.862145000">
        <ele>204.50</ele>
        <time>2012-09-18T18:59:59Z</time>
      </trkpt>
      <trkpt lat="41.510246000" lon="1.862182000">
        <ele>205.00</ele>
        <time>2012-09-18T19:00:04Z</time>
      </trkpt>
      <trkpt lat="41.510457000" lon="1.862215000">
        <ele>203.20</ele>
        <time>2012-09-18T19:00:09Z</time>
      </trkpt>
      <trkpt lat="41.510626000" lon="1.862324000">
        <ele>200.20</ele>
        <time>2012-09-18T19:00:11Z</time>
      </trkpt>
      <trkpt lat="41.510808000" lon="1.862449000">
        <ele>198.80</ele>
        <time>2012-09-18T19:00:15Z</time>
      </trkpt>
      <trkpt lat="41.510992000" lon="1.862552000">
        <ele>198.50</ele>
        <time>2012-09-18T19:00:18Z</time>
      </trkpt>
      <trkpt lat="41.511174000" lon="1.862566000">
        <ele>198.20</ele>
        <time>2012-09-18T19:00:20Z</time>
      </trkpt>
      <trkpt lat="41.511360000" lon="1.862491000">
        <ele>196.70</ele>
        <time>2012-09-18T19:00:23Z</time>
      </trkpt>
      <trkpt lat="41.511567000" lon="1.862369000">
        <ele>194.30</ele>
        <time>2012-09-18T19:00:27Z</time>
      </trkpt>
      <trkpt lat="41.511797000" lon="1.862321000">
        <ele>190.60</ele>
        <time>2012-09-18T19:00:30Z</time>
      </trkpt>
      <trkpt lat="41.511980000" lon="1.862362000">
        <ele>187.20</ele>
        <time>2012-09-18T19:00:32Z</time>
      </trkpt>
      <trkpt lat="41.512155000" lon="1.862449000">
        <ele>185.50</ele>
        <time>2012-09-18T19:00:34Z</time>
      </trkpt>
      <trkpt lat="41.512312000" lon="1.862637000">
        <ele>185.60</ele>
        <time>2012-09-18T19:00:37Z</time>
      </trkpt>
      <trkpt lat="41.512476000" lon="1.862806000">
        <ele>185.50</ele>
        <time>2012-09-18T19:00:39Z</time>
      </trkpt>
      <trkpt lat="41.512694000" lon="1.862924000">
        <ele>186.50</ele>
        <time>2012-09-18T19:00:44Z</time>
      </trkpt>
      <trkpt lat="41.512888000" lon="1.862971000">
        <ele>187.30</ele>
        <time>2012-09-18T19:00:48Z</time>
      </trkpt>
      <trkpt lat="41.513078000" lon="1.863120000">
        <ele>187.10</ele>
        <time>2012-09-18T19:00:51Z</time>
      </trkpt>
      <trkpt lat="41.513216000" lon="1.863361000">
        <ele>186.50</ele>
        <time>2012-09-18T19:00:55Z</time>
      </trkpt>
      <trkpt lat="41.513322000" lon="1.863586000">
        <ele>187.80</ele>
        <time>2012-09-18T19:01:00Z</time>
      </trkpt>
      <trkpt lat="41.513437000" lon="1.863839000">
        <ele>188.20</ele>
        <time>2012-09-18T19:01:05Z</time>
      </trkpt>
      <trkpt lat="41.513542000" lon="1.864074000">
        <ele>189.10</ele>
        <time>2012-09-18T19:01:10Z</time>
      </trkpt>
      <trkpt lat="41.513685000" lon="1.864238000">
        <ele>189.80</ele>
        <time>2012-09-18T19:01:14Z</time>
      </trkpt>
      <trkpt lat="41.513812000" lon="1.864444000">
        <ele>189.70</ele>
        <time>2012-09-18T19:01:19Z</time>
      </trkpt>
      <trkpt lat="41.513872000" lon="1.864725000">
        <ele>188.80</ele>
        <time>2012-09-18T19:01:24Z</time>
      </trkpt>
      <trkpt lat="41.513926000" lon="1.864983000">
        <ele>188.30</ele>
        <time>2012-09-18T19:01:28Z</time>
      </trkpt>
      <trkpt lat="41.513989000" lon="1.865246000">
        <ele>188.20</ele>
        <time>2012-09-18T19:01:33Z</time>
      </trkpt>
      <trkpt lat="41.514026000" lon="1.865505000">
        <ele>188.50</ele>
        <time>2012-09-18T19:01:36Z</time>
      </trkpt>
      <trkpt lat="41.514017000" lon="1.865765000">
        <ele>189.40</ele>
        <time>2012-09-18T19:01:40Z</time>
      </trkpt>
      <trkpt lat="41.514024000" lon="1.866044000">
        <ele>191.10</ele>
        <time>2012-09-18T19:01:45Z</time>
      </trkpt>
      <trkpt lat="41.514130000" lon="1.866266000">
        <ele>192.50</ele>
        <time>2012-09-18T19:01:50Z</time>
      </trkpt>
      <trkpt lat="41.514256000" lon="1.866475000">
        <ele>193.20</ele>
        <time>2012-09-18T19:01:56Z</time>
      </trkpt>
      <trkpt lat="41.514316000" lon="1.866701000">
        <ele>194.30</ele>
        <time>2012-09-18T19:02:01Z</time>
      </trkpt>
      <trkpt lat="41.514378000" lon="1.866943000">
        <ele>196.10</ele>
        <time>2012-09-18T19:02:06Z</time>
      </trkpt>
      <trkpt lat="41.514476000" lon="1.867194000">
        <ele>197.80</ele>
        <time>2012-09-18T19:02:13Z</time>
      </trkpt>
      <trkpt lat="41.514586000" lon="1.867427000">
        <ele>199.20</ele>
        <time>2012-09-18T19:02:18Z</time>
      </trkpt>
      <trkpt lat="41.514693000" lon="1.867645000">
        <ele>200.10</ele>
        <time>2012-09-18T19:02:25Z</time>
      </trkpt>
      <trkpt lat="41.514799000" lon="1.867857000">
        <ele>200.20</ele>
        <time>2012-09-18T19:02:29Z</time>
      </trkpt>
      <trkpt lat="41.514887000" lon="1.868092000">
        <ele>200.20</ele>
        <time>2012-09-18T19:02:34Z</time>
      </trkpt>
      <trkpt lat="41.514972000" lon="1.868330000">
        <ele>200.20</ele>
        <time>2012-09-18T19:02:39Z</time>
      </trkpt>
      <trkpt lat="41.514996000" lon="1.868575000">
        <ele>200.20</ele>
        <time>2012-09-18T19:02:44Z</time>
      </trkpt>
      <trkpt lat="41.515072000" lon="1.868787000">
        <ele>200.10</ele>
        <time>2012-09-18T19:02:50Z</time>
      </trkpt>
      <trkpt lat="41.515222000" lon="1.868955000">
        <ele>199.40</ele>
        <time>2012-09-18T19:02:55Z</time>
      </trkpt>
      <trkpt lat="41.515387000" lon="1.869081000">
        <ele>198.70</ele>
        <time>2012-09-18T19:03:02Z</time>
      </trkpt>
      <trkpt lat="41.515569000" lon="1.869218000">
        <ele>197.60</ele>
        <time>2012-09-18T19:03:09Z</time>
      </trkpt>
      <trkpt lat="41.515732000" lon="1.869346000">
        <ele>197.20</ele>
        <time>2012-09-18T19:03:14Z</time>
      </trkpt>
      <trkpt lat="41.515880000" lon="1.869548000">
        <ele>196.90</ele>
        <time>2012-09-18T19:03:19Z</time>
      </trkpt>
      <trkpt lat="41.515982000" lon="1.869761000">
        <ele>196.50</ele>
        <time>2012-09-18T19:03:24Z</time>
      </trkpt>
      <trkpt lat="41.516090000" lon="1.869984000">
        <ele>196.40</ele>
        <time>2012-09-18T19:03:30Z</time>
      </trkpt>
      <trkpt lat="41.516244000" lon="1.870206000">
        <ele>194.60</ele>
        <time>2012-09-18T19:03:35Z</time>
      </trkpt>
      <trkpt lat="41.516432000" lon="1.870393000">
        <ele>192.70</ele>
        <time>2012-09-18T19:03:38Z</time>
      </trkpt>
      <trkpt lat="41.516626000" lon="1.870496000">
        <ele>190.90</ele>
        <time>2012-09-18T19:03:42Z</time>
      </trkpt>
      <trkpt lat="41.516786000" lon="1.870671000">
        <ele>188.10</ele>
        <time>2012-09-18T19:03:47Z</time>
      </trkpt>
      <trkpt lat="41.516944000" lon="1.870806000">
        <ele>186.50</ele>
        <time>2012-09-18T19:03:49Z</time>
      </trkpt>
      <trkpt lat="41.517161000" lon="1.870912000">
        <ele>185.20</ele>
        <time>2012-09-18T19:03:54Z</time>
      </trkpt>
      <trkpt lat="41.517316000" lon="1.871081000">
        <ele>183.90</ele>
        <time>2012-09-18T19:03:58Z</time>
      </trkpt>
      <trkpt lat="41.517468000" lon="1.871197000">
        <ele>182.40</ele>
        <time>2012-09-18T19:04:01Z</time>
      </trkpt>
      <trkpt lat="41.517705000" lon="1.871205000">
        <ele>181.40</ele>
        <time>2012-09-18T19:04:06Z</time>
      </trkpt>
      <trkpt lat="41.517936000" lon="1.871197000">
        <ele>180.90</ele>
        <time>2012-09-18T19:04:10Z</time>
      </trkpt>
      <trkpt lat="41.518142000" lon="1.871239000">
        <ele>180.70</ele>
        <time>2012-09-18T19:04:13Z</time>
      </trkpt>
      <trkpt lat="41.518346000" lon="1.871299000">
        <ele>180.60</ele>
        <time>2012-09-18T19:04:17Z</time>
      </trkpt>
      <trkpt lat="41.518543000" lon="1.871352000">
        <ele>180.70</ele>
        <time>2012-09-18T19:04:22Z</time>
      </trkpt>
      <trkpt lat="41.518688000" lon="1.871487000">
        <ele>180.60</ele>
        <time>2012-09-18T19:04:27Z</time>
      </trkpt>
      <trkpt lat="41.518741000" lon="1.871738000">
        <ele>177.80</ele>
        <time>2012-09-18T19:04:31Z</time>
      </trkpt>
      <trkpt lat="41.518800000" lon="1.872031000">
        <ele>177.90</ele>
        <time>2012-09-18T19:04:36Z</time>
      </trkpt>
      <trkpt lat="41.518757000" lon="1.872324000">
        <ele>177.90</ele>
        <time>2012-09-18T19:04:39Z</time>
      </trkpt>
      <trkpt lat="41.518671000" lon="1.872570000">
        <ele>178.00</ele>
        <time>2012-09-18T19:04:43Z</time>
      </trkpt>
      <trkpt lat="41.518538000" lon="1.872788000">
        <ele>176.80</ele>
        <time>2012-09-18T19:04:48Z</time>
      </trkpt>
      <trkpt lat="41.518417000" lon="1.872973000">
        <ele>175.90</ele>
        <time>2012-09-18T19:04:50Z</time>
      </trkpt>
      <trkpt lat="41.518315000" lon="1.873189000">
        <ele>174.70</ele>
        <time>2012-09-18T19:04:53Z</time>
      </trkpt>
      <trkpt lat="41.518224000" lon="1.873466000">
        <ele>174.50</ele>
        <time>2012-09-18T19:04:57Z</time>
      </trkpt>
      <trkpt lat="41.518218000" lon="1.873778000">
        <ele>170.70</ele>
        <time>2012-09-18T19:05:02Z</time>
      </trkpt>
      <trkpt lat="41.518316000" lon="1.874026000">
        <ele>169.40</ele>
        <time>2012-09-18T19:05:04Z</time>
      </trkpt>
      <trkpt lat="41.518425000" lon="1.874268000">
        <ele>168.90</ele>
        <time>2012-09-18T19:05:07Z</time>
      </trkpt>
      <trkpt lat="41.518530000" lon="1.874516000">
        <ele>168.50</ele>
        <time>2012-09-18T19:05:11Z</time>
      </trkpt>
      <trkpt lat="41.518601000" lon="1.874739000">
        <ele>168.60</ele>
        <time>2012-09-18T19:05:14Z</time>
      </trkpt>
      <trkpt lat="41.518658000" lon="1.874997000">
        <ele>169.00</ele>
        <time>2012-09-18T19:05:18Z</time>
      </trkpt>
      <trkpt lat="41.518752000" lon="1.875250000">
        <ele>168.80</ele>
        <time>2012-09-18T19:05:21Z</time>
      </trkpt>
      <trkpt lat="41.518835000" lon="1.875493000">
        <ele>169.30</ele>
        <time>2012-09-18T19:05:25Z</time>
      </trkpt>
      <trkpt lat="41.518922000" lon="1.875723000">
        <ele>169.70</ele>
        <time>2012-09-18T19:05:30Z</time>
      </trkpt>
      <trkpt lat="41.518988000" lon="1.875948000">
        <ele>170.00</ele>
        <time>2012-09-18T19:05:33Z</time>
      </trkpt>
      <trkpt lat="41.519033000" lon="1.876178000">
        <ele>170.90</ele>
        <time>2012-09-18T19:05:37Z</time>
      </trkpt>
      <trkpt lat="41.519126000" lon="1.876388000">
        <ele>171.70</ele>
        <time>2012-09-18T19:05:42Z</time>
      </trkpt>
      <trkpt lat="41.519236000" lon="1.876590000">
        <ele>172.10</ele>
        <time>2012-09-18T19:05:46Z</time>
      </trkpt>
      <trkpt lat="41.519340000" lon="1.876794000">
        <ele>172.30</ele>
        <time>2012-09-18T19:05:49Z</time>
      </trkpt>
      <trkpt lat="41.519416000" lon="1.877061000">
        <ele>172.80</ele>
        <time>2012-09-18T19:05:54Z</time>
      </trkpt>
      <trkpt lat="41.519401000" lon="1.877343000">
        <ele>173.80</ele>
        <time>2012-09-18T19:06:00Z</time>
      </trkpt>
      <trkpt lat="41.519372000" lon="1.877604000">
        <ele>174.50</ele>
        <time>2012-09-18T19:06:05Z</time>
      </trkpt>
      <trkpt lat="41.519332000" lon="1.877846000">
        <ele>176.50</ele>
        <time>2012-09-18T19:06:10Z</time>
      </trkpt>
      <trkpt lat="41.519261000" lon="1.878068000">
        <ele>178.10</ele>
        <time>2012-09-18T19:06:17Z</time>
      </trkpt>
      <trkpt lat="41.519155000" lon="1.878268000">
        <ele>179.60</ele>
        <time>2012-09-18T19:06:22Z</time>
      </trkpt>
      <trkpt lat="41.519165000" lon="1.878537000">
        <ele>180.00</ele>
        <time>2012-09-18T19:06:29Z</time>
      </trkpt>
      <trkpt lat="41.519247000" lon="1.878788000">
        <ele>179.60</ele>
        <time>2012-09-18T19:06:36Z</time>
      </trkpt>
      <trkpt lat="41.519318000" lon="1.879039000">
        <ele>179.00</ele>
        <time>2012-09-18T19:06:41Z</time>
      </trkpt>
      <trkpt lat="41.519361000" lon="1.879283000">
        <ele>179.30</ele>
        <time>2012-09-18T19:06:48Z</time>
      </trkpt>
      <trkpt lat="41.519399000" lon="1.879526000">
        <ele>179.30</ele>
        <time>2012-09-18T19:06:55Z</time>
      </trkpt>
      <trkpt lat="41.519334000" lon="1.879802000">
        <ele>176.90</ele>
        <time>2012-09-18T19:07:02Z</time>
      </trkpt>
      <trkpt lat="41.519282000" lon="1.880039000">
        <ele>175.40</ele>
        <time>2012-09-18T19:07:06Z</time>
      </trkpt>
      <trkpt lat="41.519216000" lon="1.880271000">
        <ele>174.20</ele>
        <time>2012-09-18T19:07:11Z</time>
      </trkpt>
      <trkpt lat="41.519206000" lon="1.880517000">
        <ele>173.00</ele>
        <time>2012-09-18T19:07:16Z</time>
      </trkpt>
      <trkpt lat="41.519262000" lon="1.880766000">
        <ele>172.30</ele>
        <time>2012-09-18T19:07:21Z</time>
      </trkpt>
      <trkpt lat="41.519317000" lon="1.881020000">
        <ele>171.30</ele>
        <time>2012-09-18T19:07:27Z</time>
      </trkpt>
      <trkpt lat="41.519398000" lon="1.881293000">
        <ele>170.20</ele>
        <time>2012-09-18T19:07:32Z</time>
      </trkpt>
      <trkpt lat="41.519476000" lon="1.881537000">
        <ele>169.30</ele>
        <time>2012-09-18T19:07:35Z</time>
      </trkpt>
      <trkpt lat="41.519542000" lon="1.881773000">
        <ele>168.00</ele>
        <time>2012-09-18T19:07:39Z</time>
      </trkpt>
      <trkpt lat="41.519637000" lon="1.882041000">
        <ele>166.00</ele>
        <time>2012-09-18T19:07:44Z</time>
      </trkpt>
      <trkpt lat="41.519683000" lon="1.882299000">
        <ele>163.80</ele>
        <time>2012-09-18T19:07:49Z</time>
      </trkpt>
      <trkpt lat="41.519729000" lon="1.882567000">
        <ele>163.60</ele>
        <time>2012-09-18T19:07:53Z</time>
      </trkpt>
      <trkpt lat="41.519800000" lon="1.883065000">
        <ele>162.00</ele>
        <time>2012-09-18T19:08:00Z</time>
      </trkpt>
      <trkpt lat="41.519708000" lon="1.883371000">
        <ele>158.90</ele>
        <time>2012-09-18T19:08:07Z</time>
      </trkpt>
      <trkpt lat="41.519613000" lon="1.883636000">
        <ele>157.70</ele>
        <time>2012-09-18T19:08:10Z</time>
      </trkpt>
      <trkpt lat="41.519507000" lon="1.883924000">
        <ele>156.80</ele>
        <time>2012-09-18T19:08:14Z</time>
      </trkpt>
      <trkpt lat="41.519429000" lon="1.884145000">
        <ele>156.10</ele>
        <time>2012-09-18T19:08:17Z</time>
      </trkpt>
      <trkpt lat="41.519370000" lon="1.884425000">
        <ele>156.00</ele>
        <time>2012-09-18T19:08:22Z</time>
      </trkpt>
      <trkpt lat="41.519283000" lon="1.884688000">
        <ele>155.60</ele>
        <time>2012-09-18T19:08:26Z</time>
      </trkpt>
      <trkpt lat="41.519204000" lon="1.884903000">
        <ele>153.80</ele>
        <time>2012-09-18T19:08:31Z</time>
      </trkpt>
      <trkpt lat="41.519181000" lon="1.885203000">
        <ele>152.50</ele>
        <time>2012-09-18T19:08:35Z</time>
      </trkpt>
      <trkpt lat="41.519212000" lon="1.885458000">
        <ele>149.90</ele>
        <time>2012-09-18T19:08:38Z</time>
      </trkpt>
      <trkpt lat="41.519246000" lon="1.885725000">
        <ele>149.50</ele>
        <time>2012-09-18T19:08:40Z</time>
      </trkpt>
      <trkpt lat="41.519277000" lon="1.886010000">
        <ele>148.80</ele>
        <time>2012-09-18T19:08:43Z</time>
      </trkpt>
      <trkpt lat="41.519295000" lon="1.886294000">
        <ele>147.90</ele>
        <time>2012-09-18T19:08:47Z</time>
      </trkpt>
      <trkpt lat="41.519294000" lon="1.886578000">
        <ele>147.80</ele>
        <time>2012-09-18T19:08:50Z</time>
      </trkpt>
      <trkpt lat="41.519284000" lon="1.886849000">
        <ele>147.00</ele>
        <time>2012-09-18T19:08:52Z</time>
      </trkpt>
      <trkpt lat="41.519260000" lon="1.887106000">
        <ele>146.90</ele>
        <time>2012-09-18T19:08:55Z</time>
      </trkpt>
      <trkpt lat="41.519212000" lon="1.887390000">
        <ele>145.70</ele>
        <time>2012-09-18T19:08:59Z</time>
      </trkpt>
      <trkpt lat="41.519165000" lon="1.887697000">
        <ele>144.40</ele>
        <time>2012-09-18T19:09:04Z</time>
      </trkpt>
      <trkpt lat="41.519135000" lon="1.887947000">
        <ele>143.20</ele>
        <time>2012-09-18T19:09:06Z</time>
      </trkpt>
      <trkpt lat="41.519099000" lon="1.888192000">
        <ele>141.90</ele>
        <time>2012-09-18T19:09:09Z</time>
      </trkpt>
      <trkpt lat="41.519068000" lon="1.888444000">
        <ele>140.90</ele>
        <time>2012-09-18T19:09:13Z</time>
      </trkpt>
      <trkpt lat="41.519041000" lon="1.888705000">
        <ele>140.10</ele>
        <time>2012-09-18T19:09:16Z</time>
      </trkpt>
      <trkpt lat="41.519025000" lon="1.888983000">
        <ele>138.40</ele>
        <time>2012-09-18T19:09:18Z</time>
      </trkpt>
      <trkpt lat="41.519010000" lon="1.889280000">
        <ele>137.00</ele>
        <time>2012-09-18T19:09:22Z</time>
      </trkpt>
      <trkpt lat="41.519000000" lon="1.889580000">
        <ele>136.10</ele>
        <time>2012-09-18T19:09:25Z</time>
      </trkpt>
      <trkpt lat="41.518984000" lon="1.889884000">
        <ele>135.00</ele>
        <time>2012-09-18T19:09:27Z</time>
      </trkpt>
      <trkpt lat="41.518985000" lon="1.890189000">
        <ele>134.20</ele>
        <time>2012-09-18T19:09:30Z</time>
      </trkpt>
      <trkpt lat="41.518995000" lon="1.890504000">
        <ele>132.20</ele>
        <time>2012-09-18T19:09:34Z</time>
      </trkpt>
      <trkpt lat="41.519006000" lon="1.890805000">
        <ele>132.30</ele>
        <time>2012-09-18T19:09:37Z</time>
      </trkpt>
      <trkpt lat="41.519016000" lon="1.891098000">
        <ele>132.20</ele>
        <time>2012-09-18T19:09:39Z</time>
      </trkpt>
      <trkpt lat="41.519019000" lon="1.891391000">
        <ele>131.10</ele>
        <time>2012-09-18T19:09:42Z</time>
      </trkpt>
      <trkpt lat="41.519022000" lon="1.891667000">
        <ele>131.50</ele>
        <time>2012-09-18T19:09:46Z</time>
      </trkpt>
      <trkpt lat="41.519020000" lon="1.891932000">
        <ele>131.10</ele>
        <time>2012-09-18T19:09:48Z</time>
      </trkpt>
      <trkpt lat="41.519008000" lon="1.892178000">
        <ele>131.30</ele>
        <time>2012-09-18T19:09:51Z</time>
      </trkpt>
      <trkpt lat="41.518958000" lon="1.892442000">
        <ele>130.20</ele>
        <time>2012-09-18T19:09:55Z</time>
      </trkpt>
      <trkpt lat="41.519029000" lon="1.892687000">
        <ele>130.30</ele>
        <time>2012-09-18T19:10:00Z</time>
      </trkpt>
      <trkpt lat="41.519068000" lon="1.892948000">
        <ele>129.50</ele>
        <time>2012-09-18T19:10:03Z</time>
      </trkpt>
      <trkpt lat="41.519102000" lon="1.893213000">
        <ele>129.40</ele>
        <time>2012-09-18T19:10:07Z</time>
      </trkpt>
      <trkpt lat="41.519180000" lon="1.893491000">
        <ele>128.00</ele>
        <time>2012-09-18T19:10:12Z</time>
      </trkpt>
      <trkpt lat="41.519271000" lon="1.893708000">
        <ele>127.00</ele>
        <time>2012-09-18T19:10:14Z</time>
      </trkpt>
      <trkpt lat="41.519399000" lon="1.893953000">
        <ele>126.20</ele>
        <time>2012-09-18T19:10:19Z</time>
      </trkpt>
      <trkpt lat="41.519524000" lon="1.894129000">
        <ele>123.90</ele>
        <time>2012-09-18T19:10:21Z</time>
      </trkpt>
      <trkpt lat="41.519683000" lon="1.894352000">
        <ele>120.90</ele>
        <time>2012-09-18T19:10:24Z</time>
      </trkpt>
      <trkpt lat="41.519864000" lon="1.894619000">
        <ele>117.30</ele>
        <time>2012-09-18T19:10:28Z</time>
      </trkpt>
      <trkpt lat="41.520001000" lon="1.894815000">
        <ele>115.20</ele>
        <time>2012-09-18T19:10:29Z</time>
      </trkpt>
      <trkpt lat="41.520130000" lon="1.895009000">
        <ele>115.40</ele>
        <time>2012-09-18T19:10:31Z</time>
      </trkpt>
      <trkpt lat="41.520261000" lon="1.895190000">
        <ele>115.90</ele>
        <time>2012-09-18T19:10:33Z</time>
      </trkpt>
      <trkpt lat="41.520435000" lon="1.895438000">
        <ele>117.00</ele>
        <time>2012-09-18T19:10:36Z</time>
      </trkpt>
      <trkpt lat="41.520558000" lon="1.895635000">
        <ele>118.10</ele>
        <time>2012-09-18T19:10:40Z</time>
      </trkpt>
      <trkpt lat="41.520696000" lon="1.895830000">
        <ele>119.30</ele>
        <time>2012-09-18T19:10:43Z</time>
      </trkpt>
      <trkpt lat="41.520757000" lon="1.896032000">
        <ele>119.40</ele>
        <time>2012-09-18T19:10:49Z</time>
      </trkpt>
      <trkpt lat="41.520704000" lon="1.896263000">
        <ele>119.10</ele>
        <time>2012-09-18T19:10:54Z</time>
      </trkpt>
      <trkpt lat="41.520786000" lon="1.896502000">
        <ele>118.70</ele>
        <time>2012-09-18T19:11:01Z</time>
      </trkpt>
      <trkpt lat="41.520952000" lon="1.896685000">
        <ele>118.20</ele>
        <time>2012-09-18T19:11:06Z</time>
      </trkpt>
      <trkpt lat="41.520947000" lon="1.896967000">
        <ele>116.10</ele>
        <time>2012-09-18T19:11:10Z</time>
      </trkpt>
      <trkpt lat="41.520866000" lon="1.897205000">
        <ele>115.10</ele>
        <time>2012-09-18T19:11:13Z</time>
      </trkpt>
      <trkpt lat="41.520782000" lon="1.897459000">
        <ele>112.80</ele>
        <time>2012-09-18T19:11:15Z</time>
      </trkpt>
      <trkpt lat="41.520669000" lon="1.897719000">
        <ele>110.90</ele>
        <time>2012-09-18T19:11:18Z</time>
      </trkpt>
      <trkpt lat="41.520529000" lon="1.897975000">
        <ele>110.20</ele>
        <time>2012-09-18T19:11:22Z</time>
      </trkpt>
      <trkpt lat="41.520377000" lon="1.898198000">
        <ele>111.20</ele>
        <time>2012-09-18T19:11:25Z</time>
      </trkpt>
      <trkpt lat="41.520273000" lon="1.898403000">
        <ele>112.70</ele>
        <time>2012-09-18T19:11:27Z</time>
      </trkpt>
      <trkpt lat="41.520141000" lon="1.898590000">
        <ele>113.00</ele>
        <time>2012-09-18T19:11:32Z</time>
      </trkpt>
      <trkpt lat="41.519989000" lon="1.898733000">
        <ele>112.90</ele>
        <time>2012-09-18T19:11:36Z</time>
      </trkpt>
      <trkpt lat="41.519782000" lon="1.898858000">
        <ele>112.50</ele>
        <time>2012-09-18T19:11:41Z</time>
      </trkpt>
      <trkpt lat="41.519670000" lon="1.899063000">
        <ele>112.40</ele>
        <time>2012-09-18T19:11:46Z</time>
      </trkpt>
      <trkpt lat="41.519622000" lon="1.899281000">
        <ele>112.40</ele>
        <time>2012-09-18T19:11:50Z</time>
      </trkpt>
      <trkpt lat="41.519663000" lon="1.899542000">
        <ele>112.50</ele>
        <time>2012-09-18T19:11:57Z</time>
      </trkpt>
      <trkpt lat="41.519660000" lon="1.899783000">
        <ele>112.30</ele>
        <time>2012-09-18T19:12:02Z</time>
      </trkpt>
      <trkpt lat="41.519626000" lon="1.900047000">
        <ele>111.70</ele>
        <time>2012-09-18T19:12:07Z</time>
      </trkpt>
      <trkpt lat="41.519588000" lon="1.900305000">
        <ele>110.80</ele>
        <time>2012-09-18T19:12:12Z</time>
      </trkpt>
      <trkpt lat="41.519556000" lon="1.900548000">
        <ele>111.00</ele>
        <time>2012-09-18T19:12:16Z</time>
      </trkpt>
      <trkpt lat="41.519515000" lon="1.900794000">
        <ele>110.90</ele>
        <time>2012-09-18T19:12:19Z</time>
      </trkpt>
      <trkpt lat="41.519468000" lon="1.901036000">
        <ele>110.20</ele>
        <time>2012-09-18T19:12:23Z</time>
      </trkpt>
      <trkpt lat="41.519429000" lon="1.901278000">
        <ele>109.80</ele>
        <time>2012-09-18T19:12:28Z</time>
      </trkpt>
      <trkpt lat="41.519383000" lon="1.901556000">
        <ele>109.00</ele>
        <time>2012-09-18T19:12:33Z</time>
      </trkpt>
      <trkpt lat="41.519344000" lon="1.901823000">
        <ele>108.50</ele>
        <time>2012-09-18T19:12:37Z</time>
      </trkpt>
      <trkpt lat="41.519299000" lon="1.902059000">
        <ele>107.60</ele>
        <time>2012-09-18T19:12:42Z</time>
      </trkpt>
      <trkpt lat="41.519212000" lon="1.902317000">
        <ele>106.80</ele>
        <time>2012-09-18T19:12:47Z</time>
      </trkpt>
      <trkpt lat="41.519351000" lon="1.902526000">
        <ele>106.30</ele>
        <time>2012-09-18T19:12:52Z</time>
      </trkpt>
      <trkpt lat="41.519544000" lon="1.902698000">
        <ele>106.40</ele>
        <time>2012-09-18T19:12:56Z</time>
      </trkpt>
      <trkpt lat="41.519692000" lon="1.902848000">
        <ele>106.70</ele>
        <time>2012-09-18T19:13:01Z</time>
      </trkpt>
      <trkpt lat="41.519845000" lon="1.903007000">
        <ele>106.50</ele>
        <time>2012-09-18T19:13:05Z</time>
      </trkpt>
      <trkpt lat="41.519973000" lon="1.903176000">
        <ele>107.00</ele>
        <time>2012-09-18T19:13:08Z</time>
      </trkpt>
      <trkpt lat="41.520081000" lon="1.903384000">
        <ele>107.20</ele>
        <time>2012-09-18T19:13:13Z</time>
      </trkpt>
      <trkpt lat="41.520202000" lon="1.903618000">
        <ele>107.50</ele>
        <time>2012-09-18T19:13:17Z</time>
      </trkpt>
      <trkpt lat="41.520328000" lon="1.903845000">
        <ele>108.10</ele>
        <time>2012-09-18T19:13:24Z</time>
      </trkpt>
      <trkpt lat="41.520440000" lon="1.904081000">
        <ele>107.20</ele>
        <time>2012-09-18T19:13:29Z</time>
      </trkpt>
      <trkpt lat="41.520560000" lon="1.904333000">
        <ele>104.70</ele>
        <time>2012-09-18T19:13:34Z</time>
      </trkpt>
      <trkpt lat="41.520638000" lon="1.904615000">
        <ele>103.40</ele>
        <time>2012-09-18T19:13:38Z</time>
      </trkpt>
      <trkpt lat="41.520762000" lon="1.904842000">
        <ele>102.50</ele>
        <time>2012-09-18T19:13:43Z</time>
      </trkpt>
      <trkpt lat="41.520985000" lon="1.904916000">
        <ele>100.60</ele>
        <time>2012-09-18T19:13:46Z</time>
      </trkpt>
      <trkpt lat="41.521172000" lon="1.904961000">
        <ele>99.10</ele>
        <time>2012-09-18T19:13:50Z</time>
      </trkpt>
      <trkpt lat="41.521381000" lon="1.905011000">
        <ele>96.90</ele>
        <time>2012-09-18T19:13:53Z</time>
      </trkpt>
      <trkpt lat="41.521584000" lon="1.905085000">
        <ele>96.20</ele>
        <time>2012-09-18T19:13:55Z</time>
      </trkpt>
      <trkpt lat="41.521754000" lon="1.905239000">
        <ele>94.50</ele>
        <time>2012-09-18T19:13:59Z</time>
      </trkpt>
      <trkpt lat="41.521878000" lon="1.905452000">
        <ele>93.50</ele>
        <time>2012-09-18T19:14:02Z</time>
      </trkpt>
      <trkpt lat="41.521991000" lon="1.905666000">
        <ele>91.80</ele>
        <time>2012-09-18T19:14:04Z</time>
      </trkpt>
      <trkpt lat="41.522121000" lon="1.905901000">
        <ele>90.50</ele>
        <time>2012-09-18T19:14:07Z</time>
      </trkpt>
      <trkpt lat="41.522266000" lon="1.906130000">
        <ele>89.70</ele>
        <time>2012-09-18T19:14:11Z</time>
      </trkpt>
      <trkpt lat="41.522432000" lon="1.906291000">
        <ele>90.00</ele>
        <time>2012-09-18T19:14:14Z</time>
      </trkpt>
      <trkpt lat="41.522602000" lon="1.906415000">
        <ele>90.50</ele>
        <time>2012-09-18T19:14:16Z</time>
      </trkpt>
      <trkpt lat="41.522770000" lon="1.906504000">
        <ele>90.90</ele>
        <time>2012-09-18T19:14:19Z</time>
      </trkpt>
      <trkpt lat="41.522994000" lon="1.906550000">
        <ele>90.60</ele>
        <time>2012-09-18T19:14:23Z</time>
      </trkpt>
      <trkpt lat="41.523167000" lon="1.906563000">
        <ele>91.30</ele>
        <time>2012-09-18T19:14:28Z</time>
      </trkpt>
      <trkpt lat="41.523333000" lon="1.906395000">
        <ele>91.40</ele>
        <time>2012-09-18T19:14:33Z</time>
      </trkpt>
      <trkpt lat="41.523530000" lon="1.906390000">
        <ele>91.90</ele>
        <time>2012-09-18T19:14:37Z</time>
      </trkpt>
      <trkpt lat="41.523733000" lon="1.906357000">
        <ele>92.00</ele>
        <time>2012-09-18T19:14:42Z</time>
      </trkpt>
      <trkpt lat="41.523915000" lon="1.906331000">
        <ele>91.80</ele>
        <time>2012-09-18T19:14:47Z</time>
      </trkpt>
      <trkpt lat="41.524098000" lon="1.906327000">
        <ele>92.40</ele>
        <time>2012-09-18T19:14:51Z</time>
      </trkpt>
      <trkpt lat="41.524323000" lon="1.906328000">
        <ele>93.50</ele>
        <time>2012-09-18T19:14:56Z</time>
      </trkpt>
      <trkpt lat="41.524521000" lon="1.906332000">
        <ele>94.50</ele>
        <time>2012-09-18T19:15:01Z</time>
      </trkpt>
      <trkpt lat="41.524717000" lon="1.906344000">
        <ele>95.20</ele>
        <time>2012-09-18T19:15:05Z</time>
      </trkpt>
      <trkpt lat="41.524897000" lon="1.906481000">
        <ele>95.90</ele>
        <time>2012-09-18T19:15:12Z</time>
      </trkpt>
      <trkpt lat="41.524942000" lon="1.906732000">
        <ele>95.90</ele>
        <time>2012-09-18T19:15:17Z</time>
      </trkpt>
      <trkpt lat="41.524944000" lon="1.906998000">
        <ele>96.10</ele>
        <time>2012-09-18T19:15:24Z</time>
      </trkpt>
      <trkpt lat="41.524938000" lon="1.907292000">
        <ele>94.80</ele>
        <time>2012-09-18T19:15:29Z</time>
      </trkpt>
      <trkpt lat="41.524930000" lon="1.907553000">
        <ele>93.40</ele>
        <time>2012-09-18T19:15:34Z</time>
      </trkpt>
      <trkpt lat="41.524905000" lon="1.907802000">
        <ele>91.40</ele>
        <time>2012-09-18T19:15:36Z</time>
      </trkpt>
      <trkpt lat="41.524784000" lon="1.907988000">
        <ele>90.50</ele>
        <time>2012-09-18T19:15:40Z</time>
      </trkpt>
      <trkpt lat="41.524583000" lon="1.908040000">
        <ele>89.80</ele>
        <time>2012-09-18T19:15:43Z</time>
      </trkpt>
      <trkpt lat="41.524525000" lon="1.908276000">
        <ele>90.90</ele>
        <time>2012-09-18T19:15:48Z</time>
      </trkpt>
      <trkpt lat="41.524711000" lon="1.908332000">
        <ele>91.20</ele>
        <time>2012-09-18T19:15:55Z</time>
      </trkpt>
      <trkpt lat="41.524892000" lon="1.908395000">
        <ele>89.90</ele>
        <time>2012-09-18T19:16:04Z</time>
      </trkpt>
      <trkpt lat="41.525061000" lon="1.908531000">
        <ele>87.80</ele>
        <time>2012-09-18T19:16:09Z</time>
      </trkpt>
      <trkpt lat="41.524940000" lon="1.908707000">
        <ele>83.20</ele>
        <time>2012-09-18T19:16:16Z</time>
      </trkpt>
      <trkpt lat="41.524928000" lon="1.908910000">
        <ele>82.40</ele>
        <time>2012-09-18T19:16:23Z</time>
      </trkpt>
      <trkpt lat="41.525024000" lon="1.909179000">
        <ele>79.70</ele>
        <time>2012-09-18T19:16:28Z</time>
      </trkpt>
      <trkpt lat="41.525157000" lon="1.909398000">
        <ele>76.00</ele>
        <time>2012-09-18T19:16:32Z</time>
      </trkpt>
      <trkpt lat="41.525314000" lon="1.909576000">
        <ele>73.20</ele>
        <time>2012-09-18T19:16:35Z</time>
      </trkpt>
      <trkpt lat="41.525469000" lon="1.909724000">
        <ele>71.40</ele>
        <time>2012-09-18T19:16:39Z</time>
      </trkpt>
      <trkpt lat="41.525575000" lon="1.909925000">
        <ele>71.10</ele>
        <time>2012-09-18T19:16:44Z</time>
      </trkpt>
      <trkpt lat="41.525775000" lon="1.909933000">
        <ele>70.50</ele>
        <time>2012-09-18T19:16:49Z</time>
      </trkpt>
      <trkpt lat="41.525985000" lon="1.909947000">
        <ele>70.20</ele>
        <time>2012-09-18T19:16:53Z</time>
      </trkpt>
      <trkpt lat="41.526191000" lon="1.909965000">
        <ele>70.00</ele>
        <time>2012-09-18T19:16:58Z</time>
      </trkpt>
      <trkpt lat="41.526392000" lon="1.910008000">
        <ele>69.90</ele>
        <time>2012-09-18T19:17:03Z</time>
      </trkpt>
      <trkpt lat="41.526595000" lon="1.910099000">
        <ele>69.80</ele>
        <time>2012-09-18T19:17:08Z</time>
      </trkpt>
      <trkpt lat="41.526773000" lon="1.910186000">
        <ele>69.50</ele>
        <time>2012-09-18T19:17:14Z</time>
      </trkpt>
      <trkpt lat="41.526951000" lon="1.910245000">
        <ele>69.80</ele>
        <time>2012-09-18T19:17:19Z</time>
      </trkpt>
      <trkpt lat="41.527136000" lon="1.910287000">
        <ele>70.10</ele>
        <time>2012-09-18T19:17:24Z</time>
      </trkpt>
      <trkpt lat="41.527322000" lon="1.910343000">
        <ele>70.10</ele>
        <time>2012-09-18T19:17:29Z</time>
      </trkpt>
      <trkpt lat="41.527524000" lon="1.910383000">
        <ele>70.00</ele>
        <time>2012-09-18T19:17:33Z</time>
      </trkpt>
      <trkpt lat="41.527727000" lon="1.910435000">
        <ele>70.10</ele>
        <time>2012-09-18T19:17:38Z</time>
      </trkpt>
      <trkpt lat="41.527919000" lon="1.910481000">
        <ele>70.00</ele>
        <time>2012-09-18T19:17:43Z</time>
      </trkpt>
      <trkpt lat="41.528117000" lon="1.910513000">
        <ele>70.60</ele>
        <time>2012-09-18T19:17:48Z</time>
      </trkpt>
      <trkpt lat="41.528311000" lon="1.910535000">
        <ele>70.50</ele>
        <time>2012-09-18T19:17:54Z</time>
      </trkpt>
      <trkpt lat="41.528522000" lon="1.910565000">
        <ele>70.40</ele>
        <time>2012-09-18T19:17:59Z</time>
      </trkpt>
      <trkpt lat="41.528716000" lon="1.910623000">
        <ele>70.10</ele>
        <time>2012-09-18T19:18:04Z</time>
      </trkpt>
      <trkpt lat="41.528905000" lon="1.910690000">
        <ele>69.90</ele>
        <time>2012-09-18T19:18:09Z</time>
      </trkpt>
      <trkpt lat="41.529115000" lon="1.910741000">
        <ele>69.70</ele>
        <time>2012-09-18T19:18:15Z</time>
      </trkpt>
      <trkpt lat="41.529267000" lon="1.910575000">
        <ele>69.20</ele>
        <time>2012-09-18T19:18:20Z</time>
      </trkpt>
      <trkpt lat="41.529322000" lon="1.910329000">
        <ele>69.40</ele>
        <time>2012-09-18T19:18:25Z</time>
      </trkpt>
      <trkpt lat="41.529380000" lon="1.910085000">
        <ele>69.30</ele>
        <time>2012-09-18T19:18:30Z</time>
      </trkpt>
      <trkpt lat="41.529452000" lon="1.909849000">
        <ele>69.60</ele>
        <time>2012-09-18T19:18:36Z</time>
      </trkpt>
      <trkpt lat="41.529504000" lon="1.909587000">
        <ele>69.50</ele>
        <time>2012-09-18T19:18:41Z</time>
      </trkpt>
      <trkpt lat="41.529549000" lon="1.909326000">
        <ele>69.40</ele>
        <time>2012-09-18T19:18:46Z</time>
      </trkpt>
      <trkpt lat="41.529592000" lon="1.909059000">
        <ele>69.80</ele>
        <time>2012-09-18T19:18:51Z</time>
      </trkpt>
      <trkpt lat="41.529617000" lon="1.908796000">
        <ele>69.70</ele>
        <time>2012-09-18T19:18:55Z</time>
      </trkpt>
      <trkpt lat="41.529682000" lon="1.908553000">
        <ele>68.70</ele>
        <time>2012-09-18T19:19:00Z</time>
      </trkpt>
      <trkpt lat="41.529860000" lon="1.908422000">
        <ele>68.20</ele>
        <time>2012-09-18T19:19:05Z</time>
      </trkpt>
      <trkpt lat="41.530057000" lon="1.908321000">
        <ele>68.90</ele>
        <time>2012-09-18T19:19:12Z</time>
      </trkpt>
      <trkpt lat="41.530234000" lon="1.908246000">
        <ele>69.20</ele>
        <time>2012-09-18T19:19:17Z</time>
      </trkpt>
      <trkpt lat="41.530323000" lon="1.908004000">
        <ele>71.50</ele>
        <time>2012-09-18T19:19:23Z</time>
      </trkpt>
      <trkpt lat="41.530287000" lon="1.907734000">
        <ele>72.30</ele>
        <time>2012-09-18T19:19:28Z</time>
      </trkpt>
      <trkpt lat="41.530223000" lon="1.907478000">
        <ele>73.40</ele>
        <time>2012-09-18T19:19:33Z</time>
      </trkpt>
      <trkpt lat="41.530169000" lon="1.907229000">
        <ele>74.10</ele>
        <time>2012-09-18T19:19:38Z</time>
      </trkpt>
      <trkpt lat="41.530111000" lon="1.906980000">
        <ele>74.60</ele>
        <time>2012-09-18T19:19:42Z</time>
      </trkpt>
      <trkpt lat="41.530093000" lon="1.906733000">
        <ele>75.90</ele>
        <time>2012-09-18T19:19:47Z</time>
      </trkpt>
      <trkpt lat="41.530049000" lon="1.906459000">
        <ele>77.80</ele>
        <time>2012-09-18T19:19:54Z</time>
      </trkpt>
      <trkpt lat="41.529985000" lon="1.906240000">
        <ele>78.50</ele>
        <time>2012-09-18T19:19:59Z</time>
      </trkpt>
      <trkpt lat="41.529917000" lon="1.905995000">
        <ele>79.30</ele>
        <time>2012-09-18T19:20:04Z</time>
      </trkpt>
      <trkpt lat="41.529872000" lon="1.905751000">
        <ele>80.00</ele>
        <time>2012-09-18T19:20:11Z</time>
      </trkpt>
      <trkpt lat="41.529863000" lon="1.905487000">
        <ele>80.90</ele>
        <time>2012-09-18T19:20:17Z</time>
      </trkpt>
      <trkpt lat="41.529928000" lon="1.905230000">
        <ele>84.00</ele>
        <time>2012-09-18T19:20:24Z</time>
      </trkpt>
      <trkpt lat="41.530058000" lon="1.905069000">
        <ele>86.00</ele>
        <time>2012-09-18T19:20:30Z</time>
      </trkpt>
      <trkpt lat="41.530221000" lon="1.904978000">
        <ele>86.10</ele>
        <time>2012-09-18T19:20:37Z</time>
      </trkpt>
      <trkpt lat="41.530405000" lon="1.904850000">
        <ele>86.10</ele>
        <time>2012-09-18T19:20:44Z</time>
      </trkpt>
      <trkpt lat="41.530585000" lon="1.904737000">
        <ele>85.90</ele>
        <time>2012-09-18T19:20:50Z</time>
      </trkpt>
      <trkpt lat="41.530759000" lon="1.904639000">
        <ele>85.80</ele>
        <time>2012-09-18T19:20:55Z</time>
      </trkpt>
      <trkpt lat="41.530933000" lon="1.904533000">
        <ele>85.80</ele>
        <time>2012-09-18T19:21:00Z</time>
      </trkpt>
      <trkpt lat="41.531098000" lon="1.904399000">
        <ele>85.40</ele>
        <time>2012-09-18T19:21:05Z</time>
      </trkpt>
      <trkpt lat="41.531261000" lon="1.904246000">
        <ele>85.30</ele>
        <time>2012-09-18T19:21:11Z</time>
      </trkpt>
      <trkpt lat="41.531415000" lon="1.904063000">
        <ele>85.30</ele>
        <time>2012-09-18T19:21:16Z</time>
      </trkpt>
      <trkpt lat="41.531551000" lon="1.903849000">
        <ele>85.30</ele>
        <time>2012-09-18T19:21:21Z</time>
      </trkpt>
      <trkpt lat="41.531709000" lon="1.903627000">
        <ele>85.00</ele>
        <time>2012-09-18T19:21:26Z</time>
      </trkpt>
      <trkpt lat="41.531876000" lon="1.903424000">
        <ele>84.60</ele>
        <time>2012-09-18T19:21:30Z</time>
      </trkpt>
      <trkpt lat="41.531984000" lon="1.903226000">
        <ele>84.50</ele>
        <time>2012-09-18T19:21:35Z</time>
      </trkpt>
      <trkpt lat="41.532078000" lon="1.903007000">
        <ele>84.20</ele>
        <time>2012-09-18T19:21:38Z</time>
      </trkpt>
      <trkpt lat="41.532188000" lon="1.902787000">
        <ele>83.90</ele>
        <time>2012-09-18T19:21:42Z</time>
      </trkpt>
      <trkpt lat="41.532285000" lon="1.902588000">
        <ele>84.10</ele>
        <time>2012-09-18T19:21:47Z</time>
      </trkpt>
      <trkpt lat="41.532320000" lon="1.902330000">
        <ele>83.90</ele>
        <time>2012-09-18T19:21:52Z</time>
      </trkpt>
      <trkpt lat="41.532365000" lon="1.902067000">
        <ele>83.70</ele>
        <time>2012-09-18T19:21:58Z</time>
      </trkpt>
      <trkpt lat="41.532452000" lon="1.901807000">
        <ele>83.30</ele>
        <time>2012-09-18T19:22:03Z</time>
      </trkpt>
      <trkpt lat="41.532558000" lon="1.901581000">
        <ele>83.00</ele>
        <time>2012-09-18T19:22:06Z</time>
      </trkpt>
      <trkpt lat="41.532688000" lon="1.901366000">
        <ele>83.00</ele>
        <time>2012-09-18T19:22:10Z</time>
      </trkpt>
      <trkpt lat="41.532843000" lon="1.901145000">
        <ele>82.50</ele>
        <time>2012-09-18T19:22:15Z</time>
      </trkpt>
      <trkpt lat="41.533013000" lon="1.900923000">
        <ele>82.30</ele>
        <time>2012-09-18T19:22:18Z</time>
      </trkpt>
      <trkpt lat="41.533188000" lon="1.900730000">
        <ele>83.10</ele>
        <time>2012-09-18T19:22:22Z</time>
      </trkpt>
      <trkpt lat="41.533347000" lon="1.900588000">
        <ele>82.10</ele>
        <time>2012-09-18T19:22:25Z</time>
      </trkpt>
      <trkpt lat="41.533533000" lon="1.900430000">
        <ele>81.80</ele>
        <time>2012-09-18T19:22:29Z</time>
      </trkpt>
      <trkpt lat="41.533730000" lon="1.900277000">
        <ele>82.20</ele>
        <time>2012-09-18T19:22:31Z</time>
      </trkpt>
      <trkpt lat="41.533945000" lon="1.900110000">
        <ele>82.10</ele>
        <time>2012-09-18T19:22:34Z</time>
      </trkpt>
      <trkpt lat="41.534174000" lon="1.899931000">
        <ele>82.10</ele>
        <time>2012-09-18T19:22:38Z</time>
      </trkpt>
      <trkpt lat="41.534406000" lon="1.899757000">
        <ele>82.50</ele>
        <time>2012-09-18T19:22:41Z</time>
      </trkpt>
      <trkpt lat="41.534637000" lon="1.899577000">
        <ele>81.50</ele>
        <time>2012-09-18T19:22:43Z</time>
      </trkpt>
      <trkpt lat="41.534872000" lon="1.899398000">
        <ele>82.30</ele>
        <time>2012-09-18T19:22:46Z</time>
      </trkpt>
      <trkpt lat="41.535030000" lon="1.899273000">
        <ele>82.60</ele>
        <time>2012-09-18T19:22:48Z</time>
      </trkpt>
      <trkpt lat="41.535190000" lon="1.899152000">
        <ele>82.20</ele>
        <time>2012-09-18T19:22:50Z</time>
      </trkpt>
      <trkpt lat="41.535346000" lon="1.899027000">
        <ele>81.90</ele>
        <time>2012-09-18T19:22:53Z</time>
      </trkpt>
      <trkpt lat="41.535502000" lon="1.898904000">
        <ele>82.00</ele>
        <time>2012-09-18T19:22:55Z</time>
      </trkpt>
      <trkpt lat="41.535656000" lon="1.898766000">
        <ele>81.40</ele>
        <time>2012-09-18T19:22:57Z</time>
      </trkpt>
      <trkpt lat="41.535809000" lon="1.898625000">
        <ele>81.50</ele>
        <time>2012-09-18T19:22:59Z</time>
      </trkpt>
      <trkpt lat="41.535955000" lon="1.898467000">
        <ele>81.60</ele>
        <time>2012-09-18T19:23:00Z</time>
      </trkpt>
      <trkpt lat="41.536091000" lon="1.898301000">
        <ele>82.20</ele>
        <time>2012-09-18T19:23:02Z</time>
      </trkpt>
      <trkpt lat="41.536281000" lon="1.898033000">
        <ele>82.30</ele>
        <time>2012-09-18T19:23:05Z</time>
      </trkpt>
      <trkpt lat="41.536389000" lon="1.897841000">
        <ele>82.30</ele>
        <time>2012-09-18T19:23:07Z</time>
      </trkpt>
      <trkpt lat="41.536498000" lon="1.897639000">
        <ele>82.80</ele>
        <time>2012-09-18T19:23:09Z</time>
      </trkpt>
      <trkpt lat="41.536590000" lon="1.897439000">
        <ele>82.60</ele>
        <time>2012-09-18T19:23:11Z</time>
      </trkpt>
      <trkpt lat="41.536709000" lon="1.897126000">
        <ele>82.90</ele>
        <time>2012-09-18T19:23:14Z</time>
      </trkpt>
      <trkpt lat="41.536802000" lon="1.896808000">
        <ele>82.90</ele>
        <time>2012-09-18T19:23:18Z</time>
      </trkpt>
      <trkpt lat="41.536874000" lon="1.896488000">
        <ele>83.60</ele>
        <time>2012-09-18T19:23:21Z</time>
      </trkpt>
      <trkpt lat="41.536925000" lon="1.896173000">
        <ele>83.50</ele>
        <time>2012-09-18T19:23:23Z</time>
      </trkpt>
      <trkpt lat="41.536975000" lon="1.895883000">
        <ele>83.40</ele>
        <time>2012-09-18T19:23:26Z</time>
      </trkpt>
      <trkpt lat="41.537054000" lon="1.895650000">
        <ele>83.80</ele>
        <time>2012-09-18T19:23:30Z</time>
      </trkpt>
      <trkpt lat="41.537191000" lon="1.895464000">
        <ele>85.00</ele>
        <time>2012-09-18T19:23:33Z</time>
      </trkpt>
      <trkpt lat="41.537265000" lon="1.895206000">
        <ele>85.40</ele>
        <time>2012-09-18T19:23:39Z</time>
      </trkpt>
      <trkpt lat="41.537426000" lon="1.895056000">
        <ele>86.20</ele>
        <time>2012-09-18T19:23:44Z</time>
      </trkpt>
      <trkpt lat="41.537596000" lon="1.894977000">
        <ele>86.60</ele>
        <time>2012-09-18T19:23:47Z</time>
      </trkpt>
      <trkpt lat="41.537795000" lon="1.894913000">
        <ele>87.30</ele>
        <time>2012-09-18T19:23:53Z</time>
      </trkpt>
      <trkpt lat="41.537955000" lon="1.894798000">
        <ele>88.30</ele>
        <time>2012-09-18T19:23:58Z</time>
      </trkpt>
      <trkpt lat="41.538059000" lon="1.894591000">
        <ele>88.80</ele>
        <time>2012-09-18T19:24:03Z</time>
      </trkpt>
      <trkpt lat="41.538129000" lon="1.894356000">
        <ele>89.80</ele>
        <time>2012-09-18T19:24:08Z</time>
      </trkpt>
      <trkpt lat="41.538230000" lon="1.894148000">
        <ele>88.80</ele>
        <time>2012-09-18T19:24:15Z</time>
      </trkpt>
      <trkpt lat="41.538328000" lon="1.893943000">
        <ele>88.70</ele>
        <time>2012-09-18T19:24:19Z</time>
      </trkpt>
      <trkpt lat="41.538417000" lon="1.893727000">
        <ele>88.50</ele>
        <time>2012-09-18T19:24:24Z</time>
      </trkpt>
      <trkpt lat="41.538489000" lon="1.893468000">
        <ele>88.20</ele>
        <time>2012-09-18T19:24:29Z</time>
      </trkpt>
      <trkpt lat="41.538552000" lon="1.893232000">
        <ele>88.70</ele>
        <time>2012-09-18T19:24:34Z</time>
      </trkpt>
      <trkpt lat="41.538634000" lon="1.893007000">
        <ele>89.20</ele>
        <time>2012-09-18T19:24:43Z</time>
      </trkpt>
      <trkpt lat="41.538722000" lon="1.892771000">
        <ele>89.70</ele>
        <time>2012-09-18T19:24:50Z</time>
      </trkpt>
      <trkpt lat="41.538807000" lon="1.892518000">
        <ele>90.30</ele>
        <time>2012-09-18T19:24:59Z</time>
      </trkpt>
      <trkpt lat="41.538887000" lon="1.892293000">
        <ele>90.80</ele>
        <time>2012-09-18T19:25:06Z</time>
      </trkpt>
      <trkpt lat="41.539052000" lon="1.891787000">
        <ele>91.60</ele>
        <time>2012-09-18T19:25:21Z</time>
      </trkpt>
      <trkpt lat="41.539161000" lon="1.891578000">
        <ele>91.80</ele>
        <time>2012-09-18T19:25:27Z</time>
      </trkpt>
      <trkpt lat="41.539300000" lon="1.891359000">
        <ele>92.10</ele>
        <time>2012-09-18T19:25:32Z</time>
      </trkpt>
      <trkpt lat="41.539432000" lon="1.891160000">
        <ele>92.00</ele>
        <time>2012-09-18T19:25:37Z</time>
      </trkpt>
      <trkpt lat="41.539555000" lon="1.890946000">
        <ele>92.20</ele>
        <time>2012-09-18T19:25:42Z</time>
      </trkpt>
      <trkpt lat="41.539696000" lon="1.890715000">
        <ele>92.60</ele>
        <time>2012-09-18T19:25:48Z</time>
      </trkpt>
      <trkpt lat="41.539830000" lon="1.890472000">
        <ele>93.00</ele>
        <time>2012-09-18T19:25:53Z</time>
      </trkpt>
      <trkpt lat="41.539934000" lon="1.890260000">
        <ele>93.30</ele>
        <time>2012-09-18T19:25:56Z</time>
      </trkpt>
      <trkpt lat="41.540050000" lon="1.890038000">
        <ele>93.10</ele>
        <time>2012-09-18T19:26:00Z</time>
      </trkpt>
      <trkpt lat="41.540166000" lon="1.889799000">
        <ele>93.00</ele>
        <time>2012-09-18T19:26:05Z</time>
      </trkpt>
      <trkpt lat="41.540267000" lon="1.889556000">
        <ele>93.40</ele>
        <time>2012-09-18T19:26:08Z</time>
      </trkpt>
      <trkpt lat="41.540395000" lon="1.889320000">
        <ele>93.40</ele>
        <time>2012-09-18T19:26:12Z</time>
      </trkpt>
      <trkpt lat="41.540519000" lon="1.889090000">
        <ele>93.60</ele>
        <time>2012-09-18T19:26:17Z</time>
      </trkpt>
      <trkpt lat="41.540609000" lon="1.888843000">
        <ele>92.90</ele>
        <time>2012-09-18T19:26:21Z</time>
      </trkpt>
      <trkpt lat="41.540693000" lon="1.888602000">
        <ele>93.60</ele>
        <time>2012-09-18T19:26:24Z</time>
      </trkpt>
      <trkpt lat="41.540797000" lon="1.888391000">
        <ele>93.40</ele>
        <time>2012-09-18T19:26:29Z</time>
      </trkpt>
      <trkpt lat="41.540920000" lon="1.888184000">
        <ele>92.70</ele>
        <time>2012-09-18T19:26:33Z</time>
      </trkpt>
      <trkpt lat="41.541040000" lon="1.887970000">
        <ele>93.10</ele>
        <time>2012-09-18T19:26:36Z</time>
      </trkpt>
      <trkpt lat="41.541164000" lon="1.887765000">
        <ele>93.30</ele>
        <time>2012-09-18T19:26:40Z</time>
      </trkpt>
      <trkpt lat="41.541291000" lon="1.887571000">
        <ele>93.30</ele>
        <time>2012-09-18T19:26:45Z</time>
      </trkpt>
      <trkpt lat="41.541413000" lon="1.887394000">
        <ele>93.20</ele>
        <time>2012-09-18T19:26:48Z</time>
      </trkpt>
      <trkpt lat="41.541565000" lon="1.887406000">
        <ele>93.80</ele>
        <time>2012-09-18T19:26:54Z</time>
      </trkpt>
      <trkpt lat="41.541725000" lon="1.887319000">
        <ele>92.40</ele>
        <time>2012-09-18T19:27:01Z</time>
      </trkpt>
      <trkpt lat="41.541893000" lon="1.887151000">
        <ele>90.90</ele>
        <time>2012-09-18T19:27:06Z</time>
      </trkpt>
      <trkpt lat="41.542049000" lon="1.887038000">
        <ele>89.60</ele>
        <time>2012-09-18T19:27:11Z</time>
      </trkpt>
      <trkpt lat="41.542202000" lon="1.886930000">
        <ele>91.50</ele>
        <time>2012-09-18T19:27:34Z</time>
      </trkpt>
      <trkpt lat="41.542115000" lon="1.887542000">
        <ele>93.10</ele>
        <time>2012-09-18T19:27:44Z</time>
      </trkpt>
      <trkpt lat="41.542117000" lon="1.887580000">
        <ele>94.50</ele>
        <time>2012-09-18T19:27:55Z</time>
      </trkpt>
      <trkpt lat="41.542031000" lon="1.887753000">
        <ele>95.90</ele>
        <time>2012-09-18T19:28:02Z</time>
      </trkpt>
      <trkpt lat="41.542008000" lon="1.887493000">
        <ele>95.60</ele>
        <time>2012-09-18T19:28:10Z</time>
      </trkpt>
      <trkpt lat="41.542113000" lon="1.887259000">
        <ele>95.30</ele>
        <time>2012-09-18T19:28:17Z</time>
      </trkpt>
      <trkpt lat="41.542284000" lon="1.887086000">
        <ele>94.80</ele>
        <time>2012-09-18T19:28:23Z</time>
      </trkpt>
      <trkpt lat="41.542464000" lon="1.886962000">
        <ele>94.90</ele>
        <time>2012-09-18T19:28:28Z</time>
      </trkpt>
      <trkpt lat="41.542662000" lon="1.886882000">
        <ele>95.10</ele>
        <time>2012-09-18T19:28:35Z</time>
      </trkpt>
      <trkpt lat="41.542872000" lon="1.886847000">
        <ele>95.70</ele>
        <time>2012-09-18T19:28:40Z</time>
      </trkpt>
      <trkpt lat="41.543062000" lon="1.886837000">
        <ele>96.20</ele>
        <time>2012-09-18T19:28:45Z</time>
      </trkpt>
      <trkpt lat="41.543245000" lon="1.886892000">
        <ele>97.40</ele>
        <time>2012-09-18T19:28:50Z</time>
      </trkpt>
      <trkpt lat="41.543405000" lon="1.887041000">
        <ele>98.20</ele>
        <time>2012-09-18T19:28:57Z</time>
      </trkpt>
      <trkpt lat="41.543531000" lon="1.887288000">
        <ele>98.40</ele>
        <time>2012-09-18T19:29:01Z</time>
      </trkpt>
      <trkpt lat="41.543736000" lon="1.887299000">
        <ele>98.60</ele>
        <time>2012-09-18T19:29:06Z</time>
      </trkpt>
      <trkpt lat="41.543864000" lon="1.887071000">
        <ele>98.50</ele>
        <time>2012-09-18T19:29:10Z</time>
      </trkpt>
      <trkpt lat="41.543862000" lon="1.886803000">
        <ele>99.20</ele>
        <time>2012-09-18T19:29:13Z</time>
      </trkpt>
      <trkpt lat="41.543947000" lon="1.886581000">
        <ele>99.90</ele>
        <time>2012-09-18T19:29:18Z</time>
      </trkpt>
      <trkpt lat="41.544062000" lon="1.886371000">
        <ele>99.60</ele>
        <time>2012-09-18T19:29:22Z</time>
      </trkpt>
      <trkpt lat="41.544187000" lon="1.886157000">
        <ele>99.40</ele>
        <time>2012-09-18T19:29:25Z</time>
      </trkpt>
      <trkpt lat="41.544364000" lon="1.886038000">
        <ele>98.80</ele>
        <time>2012-09-18T19:29:29Z</time>
      </trkpt>
      <trkpt lat="41.544560000" lon="1.886114000">
        <ele>99.30</ele>
        <time>2012-09-18T19:29:34Z</time>
      </trkpt>
    </trkseg>
  </trk>
</gpx>
